M I D A S
Marine Information and Data Acquisition System
Tripno 1673 of the Zeeleeuw from 2009-04-08 07:38:57 to 2009-04-08 15:30:15
Back to CruiseResearch ActivitiesStationsMapUnderway DataData graphs

EquipmentUnitsComment
TimeDGPSUTC
LatitudeDGPSDM.mWGS84
LongitudeDGPSDM.mWGS84
TemperatureSBE03/SBE38deg celciusITS90
ConductivitySBE21S/mITS90
SalinitySBE21 Practical Salinity Units
ChlorophylAChelsea fluorimeterg/lCalibrated in Aceton
Missing or incorrect values are displayed as -999
Sea surface data collected by the RV Zeeleeuw from 2009-04-08 07:39:33 to 2009-04-08 15:44:35
                                                                                    Next 1000 lines
Time Latitude Longitude Temperature Conductivity Salinity ChlorophylA
2009-04-08 07:39:43 51°13.664 2°55.955 -999 1.985698 13.450518 -1.035392
2009-04-08 07:39:48 51°13.665 2°55.951 -999 1.985078 13.445943 -1.035392
2009-04-08 07:39:53 51°13.666 2°55.947 -999 1.985388 13.44873 -1.035392
2009-04-08 07:39:58 51°13.668 2°55.942 -999 1.985285 13.448218 -1.035392
2009-04-08 07:40:03 51°13.67 2°55.937 -999 1.985285 13.448218 -1.035392
2009-04-08 07:40:09 51°13.672 2°55.93 -999 1.985285 13.448718 -1.035392
2009-04-08 07:40:14 51°13.674 2°55.924 -999 1.985182 13.448455 -1.035392
2009-04-08 07:40:19 51°13.676 2°55.917 -999 1.985182 13.448705 -1.035392
2009-04-08 07:40:24 51°13.677 2°55.91 -999 1.985182 13.449205 -1.035392
2009-04-08 07:40:29 51°13.679 2°55.903 -999 1.985078 13.448943 -1.035392
2009-04-08 07:40:34 51°13.681 2°55.895 -999 1.985078 13.448943 -1.035392
2009-04-08 07:40:39 51°13.683 2°55.888 -999 1.985078 13.449443 -1.035392
2009-04-08 07:40:44 51°13.684 2°55.88 -999 1.984975 13.44918 -1.035392
2009-04-08 07:40:49 51°13.685 2°55.872 -999 1.984975 13.44968 -1.035392
2009-04-08 07:40:54 51°13.686 2°55.865 -999 1.984975 13.450181 -1.035392
2009-04-08 07:40:59 51°13.687 2°55.857 -999 1.984975 13.450431 -1.035392
2009-04-08 07:41:04 51°13.689 2°55.848 -999 1.984872 13.450168 -1.035392
2009-04-08 07:41:09 51°13.689 2°55.84 -999 1.984872 13.450168 -1.035392
2009-04-08 07:41:14 51°13.69 2°55.832 -999 1.984769 13.449655 -1.035392
2009-04-08 07:41:19 51°13.691 2°55.824 -999 1.984769 13.450156 -1.035392
2009-04-08 07:41:24 51°13.691 2°55.816 -999 1.984665 13.449893 -1.035392
2009-04-08 07:41:29 51°13.692 2°55.809 -999 1.984665 13.450143 -1.035392
2009-04-08 07:41:34 51°13.692 2°55.802 -999 1.984562 13.449881 -1.035392
2009-04-08 07:41:39 51°13.692 2°55.795 -999 1.984562 13.449881 -1.035392
2009-04-08 07:41:44 51°13.691 2°55.788 -999 1.984562 13.450381 -1.035392
2009-04-08 07:41:49 51°13.691 2°55.782 -999 1.984459 13.450118 -1.035392
2009-04-08 07:41:54 51°13.691 2°55.776 -999 1.984459 13.450619 -1.035392
2009-04-08 07:41:59 51°13.691 2°55.771 -999 1.984356 13.450356 -1.035392
2009-04-08 07:42:03 51°13.69 2°55.766 -999 1.984356 13.450356 -1.035392
2009-04-08 07:42:08 51°13.69 2°55.761 -999 1.984356 13.450607 -1.035392
2009-04-08 07:42:13 51°13.69 2°55.757 -999 1.984252 13.450344 -1.035392
2009-04-08 07:42:18 51°13.69 2°55.753 -999 1.984252 13.450844 -1.035392
2009-04-08 07:42:23 51°13.689 2°55.75 -999 1.984149 13.450332 -1.035392
2009-04-08 07:42:28 51°13.69 2°55.748 -999 1.984149 13.450832 -1.035392
2009-04-08 07:42:33 51°13.69 2°55.746 -999 1.984046 13.45057 -1.035392
2009-04-08 07:42:37 51°13.69 2°55.745 -999 1.984046 13.45057 -1.035392
2009-04-08 07:42:42 51°13.691 2°55.745 -999 1.983943 13.450057 -1.035392
2009-04-08 07:42:47 51°13.692 2°55.745 -999 1.983943 13.450557 -1.035392
2009-04-08 07:42:52 51°13.693 2°55.746 -999 1.983839 13.450044 -1.070216
2009-04-08 07:42:56 51°13.694 2°55.746 -999 1.983839 13.450295 -1.035392
2009-04-08 07:43:02 51°13.696 2°55.747 -999 1.983736 13.450032 -1.035392
2009-04-08 07:43:07 51°13.698 2°55.747 -999 1.983736 13.450032 -1.035392
2009-04-08 07:43:11 51°13.7 2°55.748 -999 1.983633 13.449519 -1.035392
2009-04-08 07:43:16 51°13.703 2°55.748 -999 1.98353 13.449006 -1.035392
2009-04-08 07:43:21 51°13.705 2°55.748 -999 1.98353 13.449006 -1.035392
2009-04-08 07:43:26 51°13.708 2°55.748 -999 1.983426 13.448493 -1.070216
2009-04-08 07:43:31 51°13.711 2°55.747 -999 1.983426 13.448493 -1.070216
2009-04-08 07:43:35 51°13.714 2°55.746 -999 1.983323 13.44798 -1.035392
2009-04-08 07:43:40 51°13.718 2°55.744 -999 1.983323 13.448231 -1.035392
2009-04-08 07:43:45 51°13.721 2°55.741 -999 1.983839 13.452798 -1.035392
2009-04-08 07:43:50 51°13.725 2°55.738 -999 1.983633 13.451522 -1.035392
2009-04-08 07:43:55 51°13.73 2°55.734 -999 1.983633 13.451772 -1.035392
2009-04-08 07:44:00 51°13.734 2°55.729 -999 1.983633 13.451772 -1.035392
2009-04-08 07:44:05 51°13.74 2°55.724 -999 1.98353 13.451009 -1.035392
2009-04-08 07:44:10 51°13.745 2°55.718 -999 1.98353 13.451259 -1.035392
2009-04-08 07:44:15 51°13.751 2°55.712 -999 1.983117 13.448206 -1.035392
2009-04-08 07:44:20 51°13.757 2°55.705 -999 1.98322 13.44922 -1.035392
2009-04-08 07:44:25 51°13.763 2°55.698 -999 1.983013 13.447943 -1.035392
2009-04-08 07:44:30 51°13.77 2°55.691 -999 1.983013 13.448193 -1.035392
2009-04-08 07:44:35 51°13.777 2°55.684 -999 1.983013 13.448193 -1.035392
2009-04-08 07:44:39 51°13.783 2°55.678 -999 1.982807 13.446917 -1.035392
2009-04-08 07:44:45 51°13.792 2°55.669 -999 1.982807 13.447167 -1.035392
2009-04-08 07:44:51 51°13.802 2°55.659 -999 1.982807 13.447668 -1.035392
2009-04-08 07:44:55 51°13.809 2°55.653 -999 1.9826 13.446391 -1.035392
2009-04-08 07:45:00 51°13.818 2°55.646 -999 1.9826 13.446892 -1.035392
2009-04-08 07:45:05 51°13.827 2°55.638 -999 1.9826 13.446892 -1.035392
2009-04-08 07:45:10 51°13.837 2°55.63 -999 1.982497 13.446379 -1.035392
2009-04-08 07:45:15 51°13.846 2°55.622 -999 1.9826 13.447643 -1.035392
2009-04-08 07:45:20 51°13.856 2°55.614 -999 1.98229 13.445603 -1.035392
2009-04-08 07:45:25 51°13.866 2°55.607 -999 1.982394 13.446868 -1.035392
2009-04-08 07:45:30 51°13.876 2°55.599 -999 1.982394 13.446868 -1.035392
2009-04-08 07:45:35 51°13.887 2°55.591 -999 1.98229 13.446354 -1.035392
2009-04-08 07:45:39 51°13.895 2°55.584 -999 1.981981 13.444564 -1.035392
2009-04-08 07:45:45 51°13.908 2°55.574 -999 1.982187 13.446342 -1.035392
2009-04-08 07:45:50 51°13.919 2°55.566 -999 1.981981 13.445065 -1.035392
2009-04-08 07:45:55 51°13.929 2°55.558 -999 1.981981 13.445316 -1.035392
2009-04-08 07:45:59 51°13.938 2°55.551 -999 1.981981 13.445316 -1.035392
2009-04-08 07:46:05 51°13.952 2°55.542 -999 1.981981 13.445816 -1.035392
2009-04-08 07:46:10 51°13.963 2°55.534 -999 1.981774 13.444289 -1.035392
2009-04-08 07:46:15 51°13.974 2°55.526 -999 1.981464 13.442248 -1.035392
2009-04-08 07:46:20 51°13.985 2°55.518 -999 1.981258 13.440721 -1.035392
2009-04-08 07:46:25 51°13.996 2°55.51 -999 1.981464 13.442499 -1.035392
2009-04-08 07:46:30 51°14.007 2°55.502 -999 1.981464 13.442749 -1.035392
2009-04-08 07:46:35 51°14.019 2°55.494 -999 1.981464 13.442749 -1.035392
2009-04-08 07:46:40 51°14.03 2°55.486 -999 1.981155 13.440709 -1.035392
2009-04-08 07:46:45 51°14.041 2°55.478 -999 1.981568 13.444014 -1.035392
2009-04-08 07:46:51 51°14.055 2°55.468 -999 1.981155 13.441209 -1.035392
2009-04-08 07:46:55 51°14.064 2°55.462 -999 1.981361 13.442987 -1.035392
2009-04-08 07:46:59 51°14.072 2°55.455 -999 1.981155 13.44146 -1.035392
2009-04-08 07:47:05 51°14.086 2°55.445 -999 1.981155 13.44146 -1.035392
2009-04-08 07:47:10 51°14.097 2°55.436 -999 1.981051 13.440946 -1.035392
2009-04-08 07:47:15 51°14.108 2°55.427 -999 1.981155 13.442211 -1.035392
2009-04-08 07:47:20 51°14.12 2°55.418 -999 1.980948 13.440683 -1.035392
2009-04-08 07:47:25 51°14.131 2°55.409 -999 1.980948 13.440934 -1.035392
2009-04-08 07:47:30 51°14.142 2°55.399 -999 1.980948 13.440934 -1.035392
2009-04-08 07:47:35 51°14.153 2°55.389 -999 1.980845 13.44042 -1.035392
2009-04-08 07:47:40 51°14.163 2°55.378 -999 1.980845 13.440671 -1.035392
2009-04-08 07:47:45 51°14.174 2°55.367 -999 1.980845 13.440921 -1.035392
2009-04-08 07:47:50 51°14.184 2°55.355 -999 1.981051 13.442699 -1.035392
2009-04-08 07:47:55 51°14.194 2°55.343 -999 1.980741 13.440909 -1.035392
2009-04-08 07:48:00 51°14.205 2°55.332 -999 1.980742 13.441159 -1.035392
2009-04-08 07:48:05 51°14.216 2°55.32 -999 1.980742 13.441159 -1.035392
2009-04-08 07:48:10 51°14.226 2°55.307 -999 1.980535 13.439882 -1.035392
2009-04-08 07:48:15 51°14.236 2°55.295 -999 1.980328 13.438354 -1.035392
2009-04-08 07:48:20 51°14.245 2°55.281 -999 1.980432 13.439619 -1.035392
2009-04-08 07:48:25 51°14.255 2°55.267 -999 1.980535 13.440633 -1.035392
2009-04-08 07:48:30 51°14.263 2°55.253 -999 1.980432 13.44037 -1.035392
2009-04-08 07:48:35 51°14.273 2°55.238 -999 1.980432 13.44037 -1.035392
2009-04-08 07:48:40 51°14.281 2°55.223 -999 1.980432 13.440871 -1.035392
2009-04-08 07:48:45 51°14.289 2°55.208 -999 1.980328 13.440358 -1.035392
2009-04-08 07:48:50 51°14.298 2°55.192 -999 1.980019 13.438316 -1.035392
2009-04-08 07:48:55 51°14.306 2°55.176 -999 1.980019 13.438567 -1.070216
2009-04-08 07:49:00 51°14.314 2°55.159 -999 1.980019 13.438567 -1.070216
2009-04-08 07:49:05 51°14.322 2°55.143 -999 1.979399 13.433983 -1.035392
2009-04-08 07:49:10 51°14.33 2°55.126 -999 1.979915 13.437803 -1.035392
2009-04-08 07:49:15 51°14.338 2°55.109 -999 1.979296 13.433469 -1.035392
2009-04-08 07:49:20 51°14.346 2°55.092 -999 1.979502 13.434997 -1.035392
2009-04-08 07:49:24 51°14.353 2°55.077 -999 1.979192 13.432955 -1.035392
2009-04-08 07:49:30 51°14.363 2°55.056 -999 1.979192 13.432955 -1.035392
2009-04-08 07:49:35 51°14.372 2°55.039 -999 1.979399 13.434734 -1.035392
2009-04-08 07:49:40 51°14.381 2°55.022 -999 1.979089 13.432692 -1.035392
2009-04-08 07:49:45 51°14.39 2°55.005 -999 1.979399 13.435235 -1.035392
2009-04-08 07:49:50 51°14.4 2°54.988 -999 1.978573 13.429373 -1.035392
2009-04-08 07:49:55 51°14.41 2°54.971 -999 1.978263 13.427331 -1.035392
2009-04-08 07:50:00 51°14.42 2°54.954 -999 1.978366 13.428095 -1.035392
2009-04-08 07:50:05 51°14.431 2°54.938 -999 1.978366 13.428095 -1.035392
2009-04-08 07:50:10 51°14.442 2°54.923 -999 1.97816 13.426817 -1.035392
2009-04-08 07:50:15 51°14.454 2°54.909 -999 1.978676 13.431138 -1.035392
2009-04-08 07:50:19 51°14.464 2°54.898 -999 1.978883 13.433167 -1.035392
2009-04-08 07:50:25 51°14.48 2°54.883 -999 1.979502 13.438253 -1.070216
2009-04-08 07:50:30 51°14.493 2°54.87 -999 1.979399 13.438742 -1.035392
2009-04-08 07:50:35 51°14.506 2°54.858 -999 1.979399 13.438742 -1.035392
2009-04-08 07:50:39 51°14.517 2°54.848 -999 1.979709 13.442539 -1.035392
2009-04-08 07:50:45 51°14.532 2°54.832 -999 1.978883 13.436674 -1.035392
2009-04-08 07:50:50 51°14.546 2°54.819 -999 1.978986 13.437188 -1.035392
2009-04-08 07:50:55 51°14.559 2°54.806 -999 1.979193 13.439719 -1.035392
2009-04-08 07:51:00 51°14.573 2°54.792 -999 1.979193 13.439719 -1.035392
2009-04-08 07:51:05 51°14.587 2°54.779 -999 1.977953 13.430297 -1.035392
2009-04-08 07:51:10 51°14.601 2°54.765 -999 1.97754 13.427239 -1.035392
2009-04-08 07:51:15 51°14.614 2°54.752 -999 1.978057 13.43081 -1.035392
2009-04-08 07:51:20 51°14.628 2°54.739 -999 1.977334 13.42496 -1.035392
2009-04-08 07:51:25 51°14.642 2°54.726 -999 1.97785 13.428781 -1.035392
2009-04-08 07:51:30 51°14.656 2°54.712 -999 1.976714 13.420124 -1.035392
2009-04-08 07:51:35 51°14.67 2°54.699 -999 1.976714 13.420124 -1.035392
2009-04-08 07:51:39 51°14.681 2°54.688 -999 1.97754 13.426488 -1.035392
2009-04-08 07:51:45 51°14.698 2°54.672 -999 1.976404 13.418082 -1.035392
2009-04-08 07:51:50 51°14.712 2°54.658 -999 1.977747 13.428768 -1.035392
2009-04-08 07:51:55 51°14.726 2°54.645 -999 1.97847 13.435371 -1.035392
2009-04-08 07:52:00 51°14.74 2°54.631 -999 1.976817 13.423141 -1.035392
2009-04-08 07:52:05 51°14.754 2°54.617 -999 1.976817 13.423141 -1.035392
2009-04-08 07:52:10 51°14.767 2°54.603 -999 1.977437 13.427727 -1.035392
2009-04-08 07:52:15 51°14.781 2°54.589 -999 1.97754 13.429744 -1.035392
2009-04-08 07:52:20 51°14.795 2°54.576 -999 1.976921 13.424406 -1.035392
2009-04-08 07:52:25 51°14.809 2°54.562 -999 1.976817 13.42264 -1.035392
2009-04-08 07:52:30 51°14.823 2°54.548 -999 1.976817 13.42264 -1.035392
2009-04-08 07:52:35 51°14.836 2°54.535 -999 1.976921 13.422654 -1.035392
2009-04-08 07:52:40 51°14.85 2°54.521 -999 1.977747 13.428768 -1.035392
2009-04-08 07:52:45 51°14.864 2°54.508 -999 1.97785 13.429783 -1.035392
2009-04-08 07:52:50 51°14.878 2°54.494 -999 1.976714 13.421626 -1.035392
2009-04-08 07:52:55 51°14.892 2°54.481 -999 1.977024 13.424419 -1.035392
2009-04-08 07:53:00 51°14.905 2°54.467 -999 1.977024 13.424419 -1.035392
2009-04-08 07:53:05 51°14.919 2°54.454 -999 1.978057 13.434569 -1.035392
2009-04-08 07:53:10 51°14.933 2°54.441 -999 1.977127 13.428189 -1.035392
2009-04-08 07:53:15 51°14.947 2°54.427 -999 1.97754 13.431247 -1.035392
2009-04-08 07:53:20 51°14.961 2°54.414 -999 1.979503 13.448283 -1.035392
2009-04-08 07:53:25 51°14.975 2°54.401 -999 1.976611 13.429879 -1.035392
2009-04-08 07:53:30 51°14.988 2°54.388 -999 1.97847 13.445403 -1.035392
2009-04-08 07:53:35 51°15.002 2°54.374 -999 1.97847 13.445403 -1.035392
2009-04-08 07:53:39 51°15.013 2°54.364 -999 1.97785 13.440312 -1.035392
2009-04-08 07:53:45 51°15.03 2°54.347 -999 1.97785 13.440312 -1.035392
2009-04-08 07:53:50 51°15.044 2°54.334 -999 1.976301 13.429591 -1.035392
2009-04-08 07:53:55 51°15.057 2°54.32 -999 1.975991 13.426293 -1.035392
2009-04-08 07:54:00 51°15.071 2°54.306 -999 1.976508 13.429115 -1.035392
2009-04-08 07:54:05 51°15.084 2°54.292 -999 1.976508 13.429115 -1.035392
2009-04-08 07:54:10 51°15.098 2°54.278 -999 1.975578 13.421731 -1.035392
2009-04-08 07:54:15 51°15.112 2°54.264 -999 1.977127 13.432951 -1.035392
2009-04-08 07:54:20 51°15.125 2°54.25 -999 1.977644 13.437277 -1.035392
2009-04-08 07:54:25 51°15.139 2°54.236 -999 1.978057 13.441089 -1.035392
2009-04-08 07:54:30 51°15.153 2°54.222 -999 1.978057 13.441089 -1.035392
2009-04-08 07:54:35 51°15.166 2°54.209 -999 1.977954 13.440826 -1.035392
2009-04-08 07:54:39 51°15.177 2°54.198 -999 1.976714 13.432399 -1.035392
2009-04-08 07:54:45 51°15.194 2°54.182 -999 1.976611 13.431635 -1.035392
2009-04-08 07:54:50 51°15.208 2°54.169 -999 1.976095 13.428061 -1.035392
2009-04-08 07:54:55 51°15.222 2°54.155 -999 1.977954 13.443084 -1.035392
2009-04-08 07:54:59 51°15.233 2°54.144 -999 1.974442 13.417827 -1.035392
2009-04-08 07:55:05 51°15.25 2°54.129 -999 1.974442 13.417827 -1.035392
2009-04-08 07:55:10 51°15.264 2°54.115 -999 1.976818 13.437178 -1.035392
2009-04-08 07:55:15 51°15.278 2°54.102 -999 1.975269 13.429715 -1.035392
2009-04-08 07:55:20 51°15.291 2°54.089 -999 1.977334 13.448288 -1.035392
2009-04-08 07:55:25 51°15.306 2°54.076 -999 1.976301 13.44013 -1.035392
2009-04-08 07:55:30 51°15.319 2°54.062 -999 1.976405 13.440896 -1.035392
2009-04-08 07:55:35 51°15.333 2°54.048 -999 1.976405 13.440896 -1.035392
2009-04-08 07:55:40 51°15.347 2°54.035 -999 1.975682 13.436291 -1.035392
2009-04-08 07:55:45 51°15.361 2°54.021 -999 1.974649 13.428134 -1.035392
2009-04-08 07:55:50 51°15.375 2°54.007 -999 1.976095 13.440106 -1.035392
2009-04-08 07:55:55 51°15.389 2°53.994 -999 1.975682 13.437797 -1.035392
2009-04-08 07:55:59 51°15.4 2°53.983 -999 1.97403 13.425297 -1.035392
2009-04-08 07:56:05 51°15.417 2°53.967 -999 1.97403 13.425297 -1.035392
2009-04-08 07:56:10 51°15.431 2°53.953 -999 1.976302 13.445407 -1.035392
2009-04-08 07:56:15 51°15.444 2°53.939 -999 1.975062 13.437474 -1.035392
2009-04-08 07:56:20 51°15.459 2°53.926 -999 1.975166 13.438491 -1.035392
2009-04-08 07:56:25 51°15.472 2°53.912 -999 1.97403 13.42856 -1.035392
2009-04-08 07:56:30 51°15.486 2°53.899 -999 1.97403 13.42856 -1.035392
2009-04-08 07:56:35 51°15.5 2°53.885 -999 1.975062 13.435967 -1.035392
2009-04-08 07:56:40 51°15.514 2°53.872 -999 1.974443 13.431623 -1.035392
2009-04-08 07:56:45 51°15.528 2°53.858 -999 1.974959 13.434196 -1.035392
2009-04-08 07:56:50 51°15.541 2°53.844 -999 1.975785 13.441075 -1.035392
2009-04-08 07:56:55 51°15.555 2°53.831 -999 1.974752 13.433167 -1.035392
2009-04-08 07:56:59 51°15.566 2°53.82 -999 1.974856 13.434937 -1.070216
2009-04-08 07:57:05 51°15.583 2°53.804 -999 1.974856 13.434937 -1.070216
2009-04-08 07:57:10 51°15.596 2°53.79 -999 1.975062 13.437976 -1.070216
2009-04-08 07:57:15 51°15.61 2°53.776 -999 1.975682 13.443326 -1.035392
2009-04-08 07:57:19 51°15.621 2°53.765 -999 1.976095 13.448402 -1.035392
2009-04-08 07:57:25 51°15.638 2°53.749 -999 1.975166 13.442262 -1.035392
2009-04-08 07:57:30 51°15.652 2°53.735 -999 1.975579 13.446583 -1.035392
2009-04-08 07:57:35 51°15.666 2°53.722 -999 1.975579 13.446583 -1.035392
2009-04-08 07:57:40 51°15.679 2°53.708 -999 1.974856 13.441723 -1.035392
2009-04-08 07:57:45 51°15.693 2°53.694 -999 1.97434 13.439401 -1.035392
2009-04-08 07:57:50 51°15.707 2°53.68 -999 1.975992 13.453424 -1.035392
2009-04-08 07:57:55 51°15.721 2°53.667 -999 1.973927 13.438851 -1.035392
2009-04-08 07:57:59 51°15.732 2°53.656 -999 1.973927 13.438851 -1.035392
2009-04-08 07:58:05 51°15.748 2°53.639 -999 1.975992 13.458461 -1.035392
2009-04-08 07:58:10 51°15.762 2°53.625 -999 1.97341 13.441057 -1.035392
2009-04-08 07:58:15 51°15.776 2°53.612 -999 1.97434 13.445943 -1.035392
2009-04-08 07:58:19 51°15.787 2°53.601 -999 1.975889 13.455931 -1.035392
2009-04-08 07:58:25 51°15.804 2°53.585 -999 1.975269 13.449569 -1.070216
2009-04-08 07:58:30 51°15.818 2°53.572 -999 1.97372 13.436816 -1.070216
2009-04-08 07:58:35 51°15.832 2°53.56 -999 1.97372 13.436816 -1.070216
2009-04-08 07:58:40 51°15.846 2°53.547 -999 1.974753 13.444982 -1.035392
2009-04-08 07:58:45 51°15.86 2°53.534 -999 1.97403 13.442637 -1.035392
2009-04-08 07:58:50 51°15.874 2°53.521 -999 1.973927 13.443632 -1.035392
2009-04-08 07:58:55 51°15.888 2°53.509 -999 1.97403 13.446161 -1.035392
2009-04-08 07:59:00 51°15.903 2°53.496 -999 1.973617 13.444605 -1.035392
2009-04-08 07:59:05 51°15.917 2°53.483 -999 1.973617 13.444605 -1.035392
2009-04-08 07:59:10 51°15.93 2°53.47 -999 1.972997 13.440759 -1.035392
2009-04-08 07:59:15 51°15.945 2°53.457 -999 1.972687 13.438207 -1.035392
2009-04-08 07:59:19 51°15.956 2°53.446 -999 1.97434 13.450224 -1.035392
2009-04-08 07:59:25 51°15.972 2°53.43 -999 1.97465 13.454793 -1.070216
2009-04-08 07:59:30 51°15.987 2°53.418 -999 1.975166 13.459384 -1.035392
2009-04-08 07:59:35 51°16.001 2°53.404 -999 1.975166 13.459384 -1.035392
2009-04-08 07:59:40 51°16.015 2°53.392 -999 1.972584 13.441217 -1.035392
2009-04-08 07:59:45 51°16.029 2°53.378 -999 1.974856 13.458092 -1.035392
2009-04-08 07:59:50 51°16.043 2°53.365 -999 1.971242 13.429737 -1.070216
2009-04-08 07:59:55 51°16.056 2°53.352 -999 1.974443 13.455023 -1.035392
2009-04-08 08:00:00 51°16.071 2°53.339 -999 1.974443 13.455023 -1.035392
2009-04-08 08:00:05 51°16.085 2°53.326 -999 1.970932 13.428946 -1.035392
2009-04-08 08:00:10 51°16.098 2°53.312 -999 1.971861 13.435093 -1.035392
2009-04-08 08:00:15 51°16.112 2°53.299 -999 1.973204 13.447331 -1.035392
2009-04-08 08:00:19 51°16.124 2°53.289 -999 1.971448 13.433787 -1.035392
2009-04-08 08:00:25 51°16.14 2°53.273 -999 1.97465 13.459584 -1.035392
2009-04-08 08:00:30 51°16.155 2°53.26 -999 1.972275 13.443198 -1.070216
2009-04-08 08:00:35 51°16.169 2°53.248 -999 1.972275 13.443198 -1.070216
2009-04-08 08:00:39 51°16.181 2°53.238 -999 1.976715 13.478972 -1.035392
2009-04-08 08:00:45 51°16.198 2°53.224 -999 1.974443 13.464358 -1.035392
2009-04-08 08:00:50 51°16.213 2°53.213 -999 1.974237 13.464591 -1.035392
2009-04-08 08:00:55 51°16.228 2°53.202 -999 1.971758 13.446168 -1.035392
2009-04-08 08:01:00 51°16.242 2°53.19 -999 1.973307 13.457682 -1.035392
2009-04-08 08:01:05 51°16.257 2°53.179 -999 1.973307 13.457682 -1.035392
2009-04-08 08:01:10 51°16.272 2°53.168 -999 1.972275 13.450005 -1.035392
2009-04-08 08:01:15 51°16.286 2°53.156 -999 1.972275 13.45051 -1.035392
2009-04-08 08:01:20 51°16.301 2°53.145 -999 1.973411 13.458702 -1.035392
2009-04-08 08:01:25 51°16.315 2°53.133 -999 1.974237 13.466611 -1.035392
2009-04-08 08:01:30 51°16.33 2°53.122 -999 1.974237 13.466611 -1.035392
2009-04-08 08:01:35 51°16.345 2°53.111 -999 1.974134 13.465591 -1.070216
2009-04-08 08:01:40 51°16.359 2°53.1 -999 1.973101 13.458418 -1.035392
2009-04-08 08:01:45 51°16.374 2°53.089 -999 1.972998 13.458155 -1.070216
2009-04-08 08:01:50 51°16.389 2°53.079 -999 1.973101 13.460186 -1.035392
2009-04-08 08:01:55 51°16.404 2°53.068 -999 1.972481 13.456589 -1.035392
2009-04-08 08:02:00 51°16.419 2°53.057 -999 1.972481 13.456589 -1.035392
2009-04-08 08:02:05 51°16.434 2°53.047 -999 1.973204 13.464238 -1.035392
2009-04-08 08:02:10 51°16.448 2°53.036 -999 1.973204 13.464996 -1.035392
2009-04-08 08:02:15 51°16.463 2°53.025 -999 1.972481 13.458862 -1.035392
2009-04-08 08:02:20 51°16.478 2°53.015 -999 1.972481 13.459367 -1.035392
2009-04-08 08:02:25 51°16.493 2°53.004 -999 1.972688 13.461661 -1.070216
2009-04-08 08:02:30 51°16.507 2°52.993 -999 1.970829 13.447331 -1.035392
2009-04-08 08:02:35 51°16.522 2°52.983 -999 1.970829 13.447331 -1.035392
2009-04-08 08:02:39 51°16.534 2°52.974 -999 1.972585 13.462409 -1.070216
2009-04-08 08:02:45 51°16.552 2°52.962 -999 1.96928 13.438081 -1.070216
2009-04-08 08:02:50 51°16.566 2°52.951 -999 1.970313 13.447024 -1.035392
2009-04-08 08:02:55 51°16.581 2°52.94 -999 1.972895 13.468759 -1.035392
2009-04-08 08:03:00 51°16.596 2°52.93 -999 1.969693 13.445697 -1.070216
2009-04-08 08:03:05 51°16.61 2°52.919 -999 1.969693 13.445697 -1.070216
2009-04-08 08:03:10 51°16.625 2°52.908 -999 1.97434 13.48129 -1.070216
2009-04-08 08:03:15 51°16.639 2°52.898 -999 1.969796 13.446971 -1.070216
2009-04-08 08:03:20 51°16.654 2°52.887 -999 1.972482 13.467962 -1.035392
2009-04-08 08:03:25 51°16.668 2°52.877 -999 1.970106 13.449781 -1.035392
2009-04-08 08:03:30 51°16.683 2°52.866 -999 1.970106 13.449781 -1.035392
2009-04-08 08:03:35 51°16.697 2°52.855 -999 1.972585 13.467972 -1.035392
2009-04-08 08:03:39 51°16.709 2°52.847 -999 1.970932 13.455676 -1.070216
2009-04-08 08:03:45 51°16.726 2°52.834 -999 1.971139 13.458477 -1.070216
2009-04-08 08:03:50 51°16.74 2°52.823 -999 1.971965 13.46589 -1.035392
2009-04-08 08:03:55 51°16.755 2°52.812 -999 1.971139 13.460247 -1.035392
2009-04-08 08:03:59 51°16.766 2°52.804 -999 1.971242 13.461268 -1.035392
2009-04-08 08:04:05 51°16.783 2°52.791 -999 1.971242 13.461268 -1.035392
2009-04-08 08:04:10 51°16.798 2°52.781 -999 1.967215 13.432809 -1.035392
2009-04-08 08:04:15 51°16.812 2°52.77 -999 1.971862 13.468158 -1.070216
2009-04-08 08:04:20 51°16.826 2°52.761 -999 1.96897 13.446886 -1.070216
2009-04-08 08:04:25 51°16.84 2°52.75 -999 1.970519 13.456394 -1.070216
2009-04-08 08:04:30 51°16.854 2°52.74 -999 1.972275 13.470727 -1.070216
2009-04-08 08:04:35 51°16.869 2°52.73 -999 1.972275 13.470727 -1.070216
2009-04-08 08:04:39 51°16.88 2°52.722 -999 1.969177 13.446402 -1.035392
2009-04-08 08:04:45 51°16.897 2°52.71 -999 1.970726 13.459195 -1.070216
2009-04-08 08:04:50 51°16.912 2°52.701 -999 1.972895 13.478125 -1.070216
2009-04-08 08:04:55 51°16.926 2°52.691 -999 1.97052 13.462211 -1.035392
2009-04-08 08:04:59 51°16.937 2°52.683 -999 1.97052 13.462211 -1.035392
2009-04-08 08:05:05 51°16.955 2°52.672 -999 1.970829 13.467557 -1.035392
2009-04-08 08:05:10 51°16.969 2°52.662 -999 1.971552 13.474714 -1.035392
2009-04-08 08:05:15 51°16.984 2°52.653 -999 1.970313 13.46979 -1.035392
2009-04-08 08:05:20 51°16.999 2°52.644 -999 1.971036 13.473656 -1.070216
2009-04-08 08:05:25 51°17.013 2°52.634 -999 1.970416 13.468279 -1.035392
2009-04-08 08:05:30 51°17.028 2°52.625 -999 1.970416 13.468279 -1.035392
2009-04-08 08:05:35 51°17.042 2°52.614 -999 1.971346 13.472669 -1.070216
2009-04-08 08:05:40 51°17.056 2°52.606 -999 1.966699 13.436036 -1.070216
2009-04-08 08:05:45 51°17.071 2°52.596 -999 1.976406 13.510114 -1.070216
2009-04-08 08:05:50 51°17.085 2°52.587 -999 1.96928 13.460069 -1.035392
2009-04-08 08:05:55 51°17.1 2°52.577 -999 1.975683 13.503712 -1.070216
2009-04-08 08:05:59 51°17.111 2°52.571 -999 1.96515 13.42728 -1.035392
2009-04-08 08:06:05 51°17.129 2°52.562 -999 1.96515 13.42728 -1.035392
2009-04-08 08:06:10 51°17.143 2°52.553 -999 1.976716 13.512931 -1.070216
2009-04-08 08:06:15 51°17.158 2°52.549 -999 1.969797 13.464423 -1.070216
2009-04-08 08:06:20 51°17.173 2°52.543 -999 1.971966 13.480834 -1.070216
2009-04-08 08:06:25 51°17.188 2°52.54 -999 1.97021 13.469781 -1.070216
2009-04-08 08:06:30 51°17.203 2°52.539 -999 1.984875 13.583957 -1.070216
2009-04-08 08:06:35 51°17.218 2°52.54 -999 1.984875 13.583957 -1.070216
2009-04-08 08:06:40 51°17.233 2°52.543 -999 1.969487 13.467689 -1.035392
2009-04-08 08:06:45 51°17.248 2°52.545 -999 1.978368 13.532625 -1.070216
2009-04-08 08:06:50 51°17.263 2°52.551 -999 1.984771 13.583442 -1.070216
2009-04-08 08:06:55 51°17.277 2°52.559 -999 1.972069 13.489471 -1.070216
2009-04-08 08:06:59 51°17.288 2°52.565 -999 1.972069 13.489471 -1.070216
2009-04-08 08:07:05 51°17.304 2°52.576 -999 1.974238 13.505895 -1.070216
2009-04-08 08:07:10 51°17.317 2°52.589 -999 1.973825 13.505612 -1.070216
2009-04-08 08:07:15 51°17.329 2°52.603 -999 1.978575 13.548956 -1.070216
2009-04-08 08:07:19 51°17.337 2°52.616 -999 1.97682 13.538148 -1.070216
2009-04-08 08:07:25 51°17.35 2°52.635 -999 1.975374 13.529396 -1.070216
2009-04-08 08:07:30 51°17.36 2°52.653 -999 1.975374 13.529396 -1.070216
2009-04-08 08:07:35 51°17.37 2°52.671 -999 1.979505 13.562795 -1.070216
2009-04-08 08:07:40 51°17.379 2°52.69 -999 1.979298 13.563299 -1.035392
2009-04-08 08:07:45 51°17.388 2°52.71 -999 1.971036 13.495747 -1.035392
2009-04-08 08:07:50 51°17.397 2°52.728 -999 1.986321 13.61782 -1.070216
2009-04-08 08:07:55 51°17.404 2°52.75 -999 1.970623 13.491393 -1.035392
2009-04-08 08:08:00 51°17.414 2°52.768 -999 1.989936 13.64458 -1.070216
2009-04-08 08:08:05 51°17.421 2°52.789 -999 1.989936 13.64458 -1.070216
2009-04-08 08:08:10 51°17.43 2°52.809 -999 1.977026 13.542753 -1.070216
2009-04-08 08:08:15 51°17.438 2°52.829 -999 1.975167 13.525304 -1.070216
2009-04-08 08:08:19 51°17.444 2°52.846 -999 1.981157 13.565162 -1.070216
2009-04-08 08:08:25 51°17.454 2°52.87 -999 1.971553 13.492988 -1.070216
2009-04-08 08:08:30 51°17.46 2°52.892 -999 1.985185 13.594458 -1.070216
2009-04-08 08:08:35 51°17.469 2°52.911 -999 1.985185 13.594458 -1.070216
2009-04-08 08:08:40 51°17.475 2°52.933 -999 1.971036 13.490407 -1.070216
2009-04-08 08:08:45 51°17.484 2°52.952 -999 1.977129 13.537909 -1.070216
2009-04-08 08:08:50 51°17.491 2°52.973 -999 1.969797 13.487008 -1.070216
2009-04-08 08:08:55 51°17.499 2°52.994 -999 1.981157 13.576673 -1.070216
2009-04-08 08:09:00 51°17.507 2°53.014 -999 1.981157 13.576673 -1.070216
2009-04-08 08:09:05 51°17.514 2°53.035 -999 1.967629 13.479973 -1.070216
2009-04-08 08:09:10 51°17.523 2°53.054 -999 1.983946 13.605716 -1.070216
2009-04-08 08:09:15 51°17.53 2°53.075 -999 1.969798 13.501262 -1.070216
2009-04-08 08:09:19 51°17.538 2°53.09 -999 1.981364 13.591547 -1.070216
2009-04-08 08:09:25 51°17.547 2°53.114 -999 1.968042 13.494515 -1.070216
2009-04-08 08:09:30 51°17.556 2°53.133 -999 1.977646 13.570668 -1.070216
2009-04-08 08:09:35 51°17.565 2°53.153 -999 1.977646 13.570668 -1.070216
2009-04-08 08:09:40 51°17.573 2°53.173 -999 1.972483 13.53154 -1.070216
2009-04-08 08:09:45 51°17.582 2°53.192 -999 1.96577 13.474992 -1.070216
2009-04-08 08:09:50 51°17.591 2°53.211 -999 1.979712 13.579961 -1.070216
2009-04-08 08:09:55 51°17.599 2°53.231 -999 1.967422 13.488101 -1.070216
2009-04-08 08:10:00 51°17.607 2°53.251 -999 1.97651 13.556537 -1.070216
2009-04-08 08:10:05 51°17.617 2°53.27 -999 1.97651 13.556537 -1.070216
2009-04-08 08:10:10 51°17.625 2°53.29 -999 1.969694 13.501765 -1.070216
2009-04-08 08:10:15 51°17.634 2°53.309 -999 1.97207 13.520533 -1.070216
2009-04-08 08:10:19 51°17.64 2°53.325 -999 1.968455 13.487414 -1.070216
2009-04-08 08:10:25 51°17.652 2°53.347 -999 2.047876 14.100471 -1.070216
2009-04-08 08:10:30 51°17.659 2°53.368 -999 2.047876 14.100471 -1.070216
2009-04-08 08:10:35 51°17.669 2°53.385 -999 1.97744 13.559645 -1.070216
2009-04-08 08:10:39 51°17.677 2°53.399 -999 2.024121 13.916902 -1.10504
2009-04-08 08:10:45 51°17.687 2°53.423 -999 1.968455 13.491742 -1.035392
2009-04-08 08:10:50 51°17.698 2°53.44 -999 2.557036 17.988264 -1.070216
2009-04-08 08:10:55 51°17.705 2°53.46 -999 1.995203 13.699724 -1.070216
2009-04-08 08:11:00 51°17.715 2°53.478 -999 1.995203 13.699724 -1.070216
2009-04-08 08:11:05 51°17.724 2°53.497 -999 2.041886 14.038768 -1.070216
2009-04-08 08:11:10 51°17.733 2°53.516 -999 1.992311 13.662852 -1.070216
2009-04-08 08:11:15 51°17.742 2°53.535 -999 1.985805 13.612934 -1.070216
2009-04-08 08:11:20 51°17.751 2°53.553 -999 2.000883 13.728508 -1.070216
2009-04-08 08:11:25 51°17.76 2°53.573 -999 1.989213 13.651796 -1.070216
2009-04-08 08:11:30 51°17.769 2°53.591 -999 2.018751 13.903174 -1.070216
2009-04-08 08:11:35 51°17.778 2°53.61 -999 2.018751 13.903174 -1.070216
2009-04-08 08:11:39 51°17.785 2°53.626 -999 1.98467 13.658831 -1.070216
2009-04-08 08:11:45 51°17.797 2°53.648 -999 2.041887 14.109918 -1.070216
2009-04-08 08:11:50 51°17.805 2°53.668 -999 1.971245 13.579512 -1.070216
2009-04-08 08:11:55 51°17.815 2°53.686 -999 2.055418 14.218156 -1.070216
2009-04-08 08:12:00 51°17.824 2°53.705 -999 1.983121 13.673651 -1.070216
2009-04-08 08:12:05 51°17.833 2°53.725 -999 1.983121 13.673651 -1.070216
2009-04-08 08:12:10 51°17.842 2°53.743 -999 1.993035 13.745581 -1.070216
2009-04-08 08:12:15 51°17.851 2°53.763 -999 1.98529 13.683714 -1.070216
2009-04-08 08:12:20 51°17.86 2°53.782 -999 2.002743 13.816234 -1.070216
2009-04-08 08:12:25 51°17.868 2°53.802 -999 1.979093 13.636386 -1.070216
2009-04-08 08:12:30 51°17.878 2°53.821 -999 1.979093 13.636386 -1.070216
2009-04-08 08:12:35 51°17.886 2°53.841 -999 2.013588 13.901525 -1.070216
2009-04-08 08:12:39 51°17.893 2°53.856 -999 1.980436 13.649062 -1.070216
2009-04-08 08:12:45 51°17.904 2°53.879 -999 1.99097 13.732659 -1.070216
2009-04-08 08:12:50 51°17.912 2°53.899 -999 2.015963 13.915972 -1.070216
2009-04-08 08:12:55 51°17.921 2°53.917 -999 2.018029 13.95432 -1.070216
2009-04-08 08:12:59 51°17.926 2°53.934 -999 2.040027 14.078527 -1.070216
2009-04-08 08:13:05 51°17.939 2°53.955 -999 2.040027 14.078527 -1.070216
2009-04-08 08:13:10 51°17.947 2°53.975 -999 2.013174 13.872591 -1.070216
2009-04-08 08:13:15 51°17.956 2°53.994 -999 2.018957 13.896304 -1.070216
2009-04-08 08:13:20 51°17.965 2°54.013 -999 1.99541 13.716041 -1.070216
2009-04-08 08:13:25 51°17.975 2°54.032 -999 1.99572 13.727452 -1.070216
2009-04-08 08:13:30 51°17.983 2°54.051 -999 1.999954 13.774336 -1.070216
2009-04-08 08:13:35 51°17.993 2°54.07 -999 1.999954 13.774336 -1.070216
2009-04-08 08:13:39 51°18 2°54.086 -999 2.000161 13.790529 -1.070216
2009-04-08 08:13:45 51°18.01 2°54.109 -999 2.005222 13.833303 -1.070216
2009-04-08 08:13:50 51°18.02 2°54.128 -999 1.991796 13.743573 -1.070216
2009-04-08 08:13:55 51°18.028 2°54.148 -999 2.023296 13.984465 -1.070216
2009-04-08 08:13:59 51°18.036 2°54.163 -999 2.023296 13.984465 -1.070216
2009-04-08 08:14:05 51°18.046 2°54.187 -999 1.982089 13.676284 -1.070216
2009-04-08 08:14:10 51°18.056 2°54.206 -999 2.031249 14.049502 -1.10504
2009-04-08 08:14:15 51°18.064 2°54.226 -999 1.982295 13.679138 -1.070216
2009-04-08 08:14:20 51°18.073 2°54.245 -999 2.023193 13.988209 -1.070216
2009-04-08 08:14:25 51°18.081 2°54.265 -999 1.979713 13.655303 -1.070216
2009-04-08 08:14:30 51°18.091 2°54.284 -999 1.979713 13.655303 -1.070216
2009-04-08 08:14:35 51°18.099 2°54.304 -999 2.000265 13.810182 -1.070216
2009-04-08 08:14:40 51°18.108 2°54.324 -999 1.993449 13.759927 -1.070216
2009-04-08 08:14:45 51°18.117 2°54.343 -999 1.980539 13.658399 -1.070216
2009-04-08 08:14:50 51°18.126 2°54.362 -999 1.9856 13.696967 -1.070216
2009-04-08 08:14:55 51°18.134 2°54.381 -999 2.006048 13.856098 -1.070216
2009-04-08 08:14:59 51°18.141 2°54.396 -999 1.979507 13.655567 -1.070216
2009-04-08 08:15:05 51°18.151 2°54.42 -999 1.979507 13.655567 -1.070216
2009-04-08 08:15:10 51°18.16 2°54.439 -999 2.016893 13.942039 -1.070216
2009-04-08 08:15:15 51°18.168 2°54.46 -999 1.971348 13.59604 -1.070216
2009-04-08 08:15:20 51°18.178 2°54.479 -999 2.005635 13.854831 -1.070216
2009-04-08 08:15:25 51°18.186 2°54.499 -999 1.99066 13.743126 -1.070216
2009-04-08 08:15:30 51°18.195 2°54.519 -999 1.980126 13.657889 -1.070216
2009-04-08 08:15:35 51°18.204 2°54.538 -999 1.980126 13.657889 -1.070216
2009-04-08 08:15:40 51°18.213 2°54.558 -999 1.979816 13.656079 -1.070216
2009-04-08 08:15:45 51°18.222 2°54.577 -999 2.001401 13.816633 -1.070216
2009-04-08 08:15:50 51°18.231 2°54.597 -999 1.975066 13.620365 -1.070216
2009-04-08 08:15:55 51°18.24 2°54.617 -999 2.083617 14.447048 -1.070216
2009-04-08 08:15:59 51°18.247 2°54.632 -999 2.083617 14.447048 -1.070216
2009-04-08 08:16:05 51°18.257 2°54.656 -999 1.96825 13.571978 -1.070216
2009-04-08 08:16:10 51°18.267 2°54.674 -999 2.114296 14.679657 -1.070216
2009-04-08 08:16:15 51°18.275 2°54.694 -999 1.988182 13.718731 -1.070216
2009-04-08 08:16:19 51°18.283 2°54.708 -999 1.990453 13.727733 -1.070216
2009-04-08 08:16:25 51°18.294 2°54.732 -999 1.989111 13.711648 -1.070216
2009-04-08 08:16:30 51°18.304 2°54.75 -999 1.989111 13.711648 -1.070216
2009-04-08 08:16:35 51°18.313 2°54.77 -999 1.997063 13.770899 -1.070216
2009-04-08 08:16:40 51°18.322 2°54.79 -999 1.994791 13.75617 -1.070216
2009-04-08 08:16:45 51°18.331 2°54.81 -999 1.98529 13.691514 -1.070216
2009-04-08 08:16:50 51°18.341 2°54.829 -999 1.993449 13.758881 -1.070216
2009-04-08 08:16:55 51°18.35 2°54.848 -999 1.978061 13.647809 -1.070216
2009-04-08 08:17:00 51°18.359 2°54.867 -999 1.994482 13.77582 -1.070216
2009-04-08 08:17:05 51°18.368 2°54.886 -999 1.994482 13.77582 -1.070216
2009-04-08 08:17:10 51°18.377 2°54.906 -999 1.968973 13.581026 -1.070216
2009-04-08 08:17:15 51°18.387 2°54.924 -999 2.054489 14.240374 -1.10504
2009-04-08 08:17:19 51°18.393 2°54.941 -999 1.984361 13.707975 -1.070216
2009-04-08 08:17:25 51°18.404 2°54.962 -999 1.979507 13.668564 -1.070216
2009-04-08 08:17:30 51°18.413 2°54.981 -999 1.987665 13.727898 -1.070216
2009-04-08 08:17:35 51°18.423 2°54.999 -999 1.987665 13.727898 -1.070216
2009-04-08 08:17:40 51°18.431 2°55.019 -999 1.990351 13.747593 -1.070216
2009-04-08 08:17:45 51°18.44 2°55.037 -999 1.974446 13.623737 -1.070216
2009-04-08 08:17:50 51°18.449 2°55.055 -999 1.980436 13.668275 -1.070216
2009-04-08 08:17:55 51°18.458 2°55.074 -999 1.982812 13.686928 -1.070216
2009-04-08 08:18:00 51°18.467 2°55.093 -999 1.982812 13.686928 -1.070216
2009-04-08 08:18:05 51°18.476 2°55.112 -999 1.98498 13.704291 -1.070216
2009-04-08 08:18:10 51°18.485 2°55.131 -999 1.975066 13.633845 -1.070216
2009-04-08 08:18:15 51°18.495 2°55.149 -999 2.034761 14.082158 -1.070216
2009-04-08 08:18:19 51°18.502 2°55.164 -999 1.989318 13.766024 -1.070216
2009-04-08 08:18:25 51°18.512 2°55.187 -999 2.056348 14.256063 -1.070216
2009-04-08 08:18:30 51°18.522 2°55.205 -999 1.989318 13.739032 -1.070216
2009-04-08 08:18:35 51°18.529 2°55.225 -999 1.989318 13.739032 -1.070216
2009-04-08 08:18:40 51°18.538 2°55.244 -999 1.995824 13.781735 -1.070216
2009-04-08 08:18:45 51°18.547 2°55.263 -999 2.004396 13.841021 -1.070216
2009-04-08 08:18:50 51°18.556 2°55.283 -999 1.994894 13.770285 -1.070216
2009-04-08 08:18:55 51°18.564 2°55.302 -999 1.980952 13.663063 -1.070216
2009-04-08 08:19:00 51°18.574 2°55.321 -999 2.089814 14.500575 -1.070216
2009-04-08 08:19:05 51°18.582 2°55.34 -999 2.089814 14.500575 -1.070216
2009-04-08 08:19:10 51°18.591 2°55.359 -999 1.97486 13.629696 -1.070216
2009-04-08 08:19:15 51°18.6 2°55.377 -999 2.107582 14.642711 -1.070216
2009-04-08 08:19:19 51°18.606 2°55.394 -999 1.974034 13.629966 -1.070216
2009-04-08 08:19:25 51°18.618 2°55.416 -999 2.063785 14.305236 -1.10504
2009-04-08 08:19:30 51°18.626 2°55.435 -999 2.063785 14.305236 -1.10504
2009-04-08 08:19:35 51°18.634 2°55.456 -999 1.977028 13.649129 -1.070216
2009-04-08 08:19:40 51°18.644 2°55.474 -999 2.051596 14.208221 -1.070216
2009-04-08 08:19:45 51°18.651 2°55.494 -999 1.967527 13.573514 -1.070216
2009-04-08 08:19:50 51°18.661 2°55.512 -999 2.068433 14.333842 -1.070216
2009-04-08 08:19:55 51°18.669 2°55.532 -999 1.974343 13.621923 -1.070216
2009-04-08 08:20:00 51°18.678 2°55.551 -999 1.974343 13.621923 -1.070216
2009-04-08 08:20:05 51°18.687 2°55.57 -999 2.011626 13.901545 -1.070216
2009-04-08 08:20:10 51°18.695 2°55.589 -999 1.979507 13.658684 -1.070216
2009-04-08 08:20:15 51°18.704 2°55.608 -999 1.996134 13.785903 -1.070216
2009-04-08 08:20:19 51°18.711 2°55.624 -999 1.979507 13.665442 -1.070216
2009-04-08 08:20:25 51°18.722 2°55.647 -999 2.002124 13.845504 -1.070216
2009-04-08 08:20:30 51°18.731 2°55.666 -999 1.972691 13.631803 -1.070216
2009-04-08 08:20:35 51°18.739 2°55.686 -999 1.972691 13.631803 -1.070216
2009-04-08 08:20:39 51°18.747 2°55.7 -999 1.987459 13.74728 -1.070216
2009-04-08 08:20:45 51°18.757 2°55.724 -999 1.975686 13.664523 -1.070216
2009-04-08 08:20:50 51°18.767 2°55.742 -999 1.994379 13.808422 -1.070216
2009-04-08 08:20:55 51°18.775 2°55.761 -999 1.983225 13.725562 -1.070216
2009-04-08 08:21:00 51°18.784 2°55.78 -999 1.978888 13.692057 -1.070216
2009-04-08 08:21:05 51°18.792 2°55.799 -999 1.978888 13.692057 -1.070216
2009-04-08 08:21:10 51°18.801 2°55.818 -999 1.971452 13.634426 -1.070216
2009-04-08 08:21:15 51°18.81 2°55.837 -999 2.003674 13.877809 -1.070216
2009-04-08 08:21:19 51°18.817 2°55.853 -999 1.963397 13.573199 -1.070216
2009-04-08 08:21:25 51°18.828 2°55.876 -999 2.022677 14.022205 -1.10504
2009-04-08 08:21:30 51°18.837 2°55.896 -999 2.022677 14.022205 -1.10504
2009-04-08 08:21:35 51°18.845 2°55.916 -999 1.978578 13.68737 -1.070216
2009-04-08 08:21:39 51°18.853 2°55.932 -999 1.974654 13.653351 -1.10504
2009-04-08 08:21:45 51°18.863 2°55.955 -999 1.9698 13.610544 -1.070216
2009-04-08 08:21:50 51°18.872 2°55.975 -999 1.997787 13.820963 -1.070216
2009-04-08 08:21:55 51°18.88 2°55.995 -999 1.967424 13.592656 -1.070216
2009-04-08 08:22:00 51°18.889 2°56.014 -999 2.012762 13.94008 -1.10504
2009-04-08 08:22:05 51°18.898 2°56.033 -999 2.012762 13.94008 -1.10504
2009-04-08 08:22:10 51°18.906 2°56.053 -999 1.971349 13.630526 -1.10504
2009-04-08 08:22:15 51°18.915 2°56.072 -999 2.001815 13.863506 -1.10504
2009-04-08 08:22:20 51°18.923 2°56.091 -999 1.962364 13.56516 -1.070216
2009-04-08 08:22:25 51°18.932 2°56.11 -999 2.019166 13.994056 -1.070216
2009-04-08 08:22:30 51°18.941 2°56.129 -999 1.999646 13.866981 -1.070216
2009-04-08 08:22:35 51°18.948 2°56.15 -999 1.999646 13.866981 -1.070216
2009-04-08 08:22:39 51°18.955 2°56.164 -999 1.988286 13.766638 -1.070216
2009-04-08 08:22:45 51°18.966 2°56.187 -999 2.018133 13.989988 -1.070216
2009-04-08 08:22:50 51°18.974 2°56.206 -999 1.968457 13.606659 -1.070216
2009-04-08 08:22:55 51°18.984 2°56.225 -999 2.041475 14.157644 -1.10504
2009-04-08 08:23:00 51°18.993 2°56.244 -999 2.041475 14.157644 -1.10504
2009-04-08 08:23:05 51°19.001 2°56.264 -999 1.969593 13.6134 -1.070216
2009-04-08 08:23:10 51°19.011 2°56.282 -999 2.002848 13.868129 -1.10504
2009-04-08 08:23:15 51°19.018 2°56.302 -999 1.963913 13.575018 -1.070216
2009-04-08 08:23:20 51°19.028 2°56.321 -999 2.040236 14.158803 -1.10504
2009-04-08 08:23:25 51°19.036 2°56.34 -999 1.972588 13.652108 -1.070216
2009-04-08 08:23:30 51°19.045 2°56.359 -999 1.972588 13.652108 -1.070216
2009-04-08 08:23:35 51°19.054 2°56.377 -999 1.990351 13.785388 -1.10504
2009-04-08 08:23:39 51°19.06 2°56.393 -999 1.982812 13.729259 -1.070216
2009-04-08 08:23:45 51°19.071 2°56.415 -999 1.98622 13.757614 -1.070216
2009-04-08 08:23:50 51°19.08 2°56.435 -999 1.966289 13.606672 -1.070216
2009-04-08 08:23:55 51°19.089 2°56.454 -999 2.01173 13.95091 -1.10504
2009-04-08 08:23:59 51°19.096 2°56.469 -999 1.956995 13.534522 -1.070216
2009-04-08 08:24:05 51°19.105 2°56.493 -999 1.956995 13.534522 -1.070216
2009-04-08 08:24:10 51°19.116 2°56.51 -999 3.078329 22.248092 -1.070216
2009-04-08 08:24:15 51°19.122 2°56.531 -999 1.982813 13.738969 -1.070216
2009-04-08 08:24:20 51°19.132 2°56.548 -999 2.314328 16.256095 -1.070216
2009-04-08 08:24:25 51°19.14 2°56.568 -999 1.965256 13.590318 -1.070216
2009-04-08 08:24:30 51°19.148 2°56.587 -999 3.353221 24.408751 -1.070216
2009-04-08 08:24:35 51°19.158 2°56.604 -999 3.353221 24.408751 -1.070216
2009-04-08 08:24:40 51°19.164 2°56.626 -999 1.976513 13.67023 -1.070216
2009-04-08 08:24:45 51°19.174 2°56.642 -999 3.273274 23.784198 -1.070216
2009-04-08 08:24:50 51°19.18 2°56.664 -999 1.983432 13.716388 -1.070216
2009-04-08 08:24:55 51°19.19 2°56.681 -999 2.071842 14.385358 -1.10504
2009-04-08 08:24:59 51°19.197 2°56.697 -999 2.071842 14.385358 -1.10504
2009-04-08 08:25:05 51°19.207 2°56.719 -999 2.016377 13.963122 -1.070216
2009-04-08 08:25:10 51°19.216 2°56.739 -999 2.012762 13.942208 -1.10504
2009-04-08 08:25:15 51°19.225 2°56.758 -999 2.070086 14.38303 -1.070216
2009-04-08 08:25:20 51°19.233 2°56.778 -999 2.005327 13.905949 -1.070216
2009-04-08 08:25:25 51°19.242 2°56.797 -999 2.021852 14.041692 -1.10504
2009-04-08 08:25:30 51°19.251 2°56.817 -999 2.002022 13.893708 -1.10504
2009-04-08 08:25:35 51°19.26 2°56.835 -999 2.002022 13.893708 -1.10504
2009-04-08 08:25:40 51°19.269 2°56.855 -999 2.016378 14.008546 -1.070216
2009-04-08 08:25:45 51°19.278 2°56.874 -999 2.033729 14.147925 -1.10504
2009-04-08 08:25:50 51°19.288 2°56.893 -999 2.022162 14.069343 -1.070216
2009-04-08 08:25:55 51°19.297 2°56.912 -999 2.01297 14.002834 -1.070216
2009-04-08 08:25:59 51°19.305 2°56.927 -999 2.001403 13.923124 -1.070216
2009-04-08 08:26:05 51°19.315 2°56.951 -999 2.001403 13.923124 -1.070216
2009-04-08 08:26:10 51°19.326 2°56.968 -999 2.08021 14.519143 -1.070216
2009-04-08 08:26:15 51°19.334 2°56.988 -999 2.17029 15.214521 -1.10504
2009-04-08 08:26:20 51°19.342 2°57.007 -999 2.056762 14.334341 -1.070216
2009-04-08 08:26:25 51°19.353 2°57.023 -999 2.002539 13.93094 -1.070216
2009-04-08 08:26:30 51°19.36 2°57.044 -999 2.065542 14.385943 -1.070216
2009-04-08 08:26:35 51°19.371 2°57.06 -999 2.065542 14.385943 -1.070216
2009-04-08 08:26:40 51°19.379 2°57.081 -999 2.109029 14.726395 -1.070216
2009-04-08 08:26:45 51°19.389 2°57.098 -999 2.096737 14.62096 -1.070216
2009-04-08 08:26:50 51°19.397 2°57.116 -999 1.971866 13.660222 -0.93092
2009-04-08 08:26:55 51°19.406 2°57.135 -999 2.24654 15.762649 -0.93092
2009-04-08 08:26:59 51°19.415 2°57.147 -999 2.24654 15.762649 -0.93092
2009-04-08 08:27:05 51°19.424 2°57.172 -999 1.981884 13.758779 -0.652328
2009-04-08 08:27:10 51°19.434 2°57.188 -999 2.069467 14.418811 -0.443383
2009-04-08 08:27:15 51°19.442 2°57.209 -999 1.973312 13.690777 -0.58268
2009-04-08 08:27:19 51°19.449 2°57.223 -999 2.045091 14.234706 -0.58268
2009-04-08 08:27:25 51°19.46 2°57.245 -999 1.985808 13.790332 -0.58268
2009-04-08 08:27:30 51°19.468 2°57.265 -999 1.995723 13.873656 -0.617504
2009-04-08 08:27:35 51°19.478 2°57.282 -999 1.995723 13.873656 -0.617504
2009-04-08 08:27:40 51°19.486 2°57.302 -999 1.99593 13.894143 -0.687152
2009-04-08 08:27:45 51°19.495 2°57.321 -999 2.037242 14.213796 -0.652328
2009-04-08 08:27:50 51°19.504 2°57.339 -999 1.988597 13.858737 -0.617504
2009-04-08 08:27:55 51°19.511 2°57.36 -999 1.961333 13.638887 -0.721976
2009-04-08 08:28:00 51°19.521 2°57.377 -999 2.035279 14.198589 -0.7568
2009-04-08 08:28:05 51°19.53 2°57.396 -999 2.035279 14.198589 -0.7568
2009-04-08 08:28:10 51°19.538 2°57.416 -999 1.965877 13.669915 -0.721976
2009-04-08 08:28:15 51°19.549 2°57.432 -999 1.996033 13.896529 -0.721976
2009-04-08 08:28:19 51°19.555 2°57.449 -999 1.993554 13.880382 -0.721976
2009-04-08 08:28:25 51°19.564 2°57.472 -999 1.985396 13.81793 -0.721976
2009-04-08 08:28:30 51°19.573 2°57.491 -999 1.985396 13.81793 -0.721976
2009-04-08 08:28:35 51°19.579 2°57.512 -999 2.004605 13.967249 -0.721976
2009-04-08 08:28:40 51°19.587 2°57.532 -999 2.010698 14.015977 -0.721976
2009-04-08 08:28:45 51°19.593 2°57.553 -999 2.029909 14.163443 -0.7568
2009-04-08 08:28:50 51°19.601 2°57.573 -999 1.988494 13.849957 -0.7568
2009-04-08 08:28:55 51°19.606 2°57.596 -999 1.996653 13.91246 -0.721976
2009-04-08 08:29:00 51°19.614 2°57.616 -999 1.996653 13.91246 -0.721976
2009-04-08 08:29:05 51°19.619 2°57.638 -999 2.033214 14.191327 -0.7568
2009-04-08 08:29:10 51°19.625 2°57.66 -999 1.98302 13.811322 -0.721976
2009-04-08 08:29:15 51°19.632 2°57.681 -999 2.03342 14.193719 -0.721976
2009-04-08 08:29:19 51°19.636 2°57.698 -999 1.982401 13.806882 -0.7568
2009-04-08 08:29:25 51°19.643 2°57.725 -999 1.982814 13.808691 -0.7568
2009-04-08 08:29:30 51°19.65 2°57.746 -999 2.01514 14.054874 -0.7568
2009-04-08 08:29:35 51°19.655 2°57.768 -999 2.01514 14.054874 -0.7568
2009-04-08 08:29:39 51°19.659 2°57.785 -999 1.969905 13.711247 -0.617504
2009-04-08 08:29:45 51°19.668 2°57.811 -999 2.00099 13.946759 -0.617504
2009-04-08 08:29:50 51°19.673 2°57.833 -999 1.992315 13.88218 -0.652328
2009-04-08 08:29:55 51°19.679 2°57.854 -999 1.982814 13.810019 -0.652328
2009-04-08 08:30:00 51°19.686 2°57.876 -999 2.000474 13.943103 -0.652328
2009-04-08 08:30:05 51°19.692 2°57.897 -999 2.000474 13.943103 -0.652328
2009-04-08 08:30:10 51°19.698 2°57.919 -999 2.005844 13.985538 -0.652328
2009-04-08 08:30:15 51°19.704 2°57.941 -999 1.988287 13.851052 -0.687152
2009-04-08 08:30:19 51°19.709 2°57.958 -999 1.973003 13.733962 -0.721976
2009-04-08 08:30:25 51°19.716 2°57.985 -999 1.992831 13.883165 -0.687152
2009-04-08 08:30:30 51°19.722 2°58.006 -999 1.992831 13.883165 -0.687152
2009-04-08 08:30:35 51°19.727 2°58.028 -999 1.991179 13.873817 -0.687152
2009-04-08 08:30:39 51°19.733 2°58.046 -999 1.977031 13.764261 -0.7568
2009-04-08 08:30:45 51°19.74 2°58.072 -999 2.017102 14.070613 -0.791624
2009-04-08 08:30:50 51°19.745 2°58.094 -999 1.970008 13.711767 -0.7568
2009-04-08 08:30:55 51°19.752 2°58.116 -999 2.016689 14.066929 -0.791624
2009-04-08 08:31:00 51°19.756 2°58.139 -999 1.966084 13.679366 -0.652328
2009-04-08 08:31:05 51°19.763 2°58.161 -999 1.966084 13.679366 -0.652328
2009-04-08 08:31:10 51°19.769 2°58.182 -999 2.017412 14.06891 -0.721976
2009-04-08 08:31:15 51°19.774 2°58.205 -999 1.969285 13.702593 -0.617504
2009-04-08 08:31:20 51°19.781 2°58.227 -999 1.991179 13.866615 -0.7568
2009-04-08 08:31:25 51°19.787 2°58.249 -999 2.014107 14.042967 -0.791624
2009-04-08 08:31:30 51°19.793 2°58.271 -999 1.96629 13.678565 -0.791624
2009-04-08 08:31:35 51°19.799 2°58.294 -999 1.96629 13.678565 -0.791624
2009-04-08 08:31:39 51°19.806 2°58.311 -999 2.012867 14.032465 -0.721976
2009-04-08 08:31:45 51°19.812 2°58.338 -999 1.981884 13.797919 -0.721976
2009-04-08 08:31:50 51°19.819 2°58.36 -999 1.957409 13.610195 -0.791624
2009-04-08 08:31:55 51°19.826 2°58.383 -999 2.0422 14.253997 -0.861272
2009-04-08 08:31:59 51°19.831 2°58.399 -999 1.965981 13.677531 -0.791624
2009-04-08 08:32:05 51°19.837 2°58.427 -999 1.965981 13.677531 -0.791624
2009-04-08 08:32:10 51°19.846 2°58.448 -999 1.973623 13.733117 -0.687152
2009-04-08 08:32:15 51°19.852 2°58.47 -999 1.976514 13.754523 -0.7568
2009-04-08 08:32:20 51°19.857 2°58.492 -999 1.964431 13.663158 -0.791624
2009-04-08 08:32:25 51°19.864 2°58.514 -999 1.984673 13.815631 -0.791624
2009-04-08 08:32:30 51°19.872 2°58.534 -999 2.001197 13.946452 -0.791624
2009-04-08 08:32:35 51°19.876 2°58.556 -999 2.001197 13.946452 -0.791624
2009-04-08 08:32:39 51°19.881 2°58.574 -999 1.954621 13.590112 -0.791624
2009-04-08 08:32:45 51°19.89 2°58.599 -999 2.015243 14.050255 -0.791624
2009-04-08 08:32:50 51°19.895 2°58.621 -999 1.986222 13.830312 -0.791624
2009-04-08 08:32:55 51°19.903 2°58.642 -999 1.981471 13.794519 -0.7568
2009-04-08 08:32:59 51°19.907 2°58.66 -999 1.978167 13.769176 -0.7568
2009-04-08 08:33:05 51°19.915 2°58.686 -999 1.978167 13.769176 -0.7568
2009-04-08 08:33:10 51°19.921 2°58.708 -999 1.981781 13.797135 -0.7568
2009-04-08 08:33:15 51°19.927 2°58.73 -999 1.96722 13.686402 -0.7568
2009-04-08 08:33:20 51°19.933 2°58.753 -999 1.967839 13.690311 -0.7568
2009-04-08 08:33:25 51°19.94 2°58.774 -999 1.976204 13.755875 -0.7568
2009-04-08 08:33:30 51°19.945 2°58.797 -999 1.989733 13.859635 -0.721976
2009-04-08 08:33:35 51°19.953 2°58.818 -999 1.989733 13.859635 -0.721976
2009-04-08 08:33:39 51°19.957 2°58.837 -999 1.965361 13.675988 -0.7568
2009-04-08 08:33:45 51°19.966 2°58.863 -999 1.986015 13.832201 -0.721976
2009-04-08 08:33:50 51°19.972 2°58.886 -999 1.983743 13.816811 -0.7568
2009-04-08 08:33:55 51°19.978 2°58.908 -999 1.970731 13.71857 -0.7568
2009-04-08 08:33:59 51°19.983 2°58.926 -999 1.970731 13.71857 -0.7568
2009-04-08 08:34:05 51°19.991 2°58.952 -999 1.967013 13.68931 -0.7568
2009-04-08 08:34:10 51°19.998 2°58.975 -999 1.982814 13.810285 -0.7568
2009-04-08 08:34:15 51°20.004 2°58.997 -999 1.978476 13.777884 -0.7568
2009-04-08 08:34:20 51°20.01 2°59.019 -999 1.960301 13.638663 -0.7568
2009-04-08 08:34:25 51°20.016 2°59.041 -999 1.95648 13.608122 -0.7568
2009-04-08 08:34:30 51°20.023 2°59.063 -999 1.992315 13.880845 -0.7568
2009-04-08 08:34:35 51°20.029 2°59.085 -999 1.992315 13.880845 -0.7568
2009-04-08 08:34:40 51°20.035 2°59.108 -999 1.972383 13.733751 -0.791624
2009-04-08 08:34:45 51°20.042 2°59.129 -999 2.004605 13.977729 -0.791624
2009-04-08 08:34:50 51°20.048 2°59.151 -999 1.97889 13.784468 -0.791624
2009-04-08 08:34:55 51°20.053 2°59.174 -999 1.964432 13.672094 -0.791624
2009-04-08 08:34:59 51°20.059 2°59.19 -999 1.976308 13.761421 -0.7568
2009-04-08 08:35:05 51°20.067 2°59.217 -999 1.976308 13.761421 -0.7568
2009-04-08 08:35:10 51°20.073 2°59.238 -999 1.971454 13.724056 -0.7568
2009-04-08 08:35:15 51°20.08 2°59.26 -999 1.983847 13.818924 -0.7568
2009-04-08 08:35:19 51°20.085 2°59.278 -999 1.981781 13.803771 -0.791624
2009-04-08 08:35:25 51°20.094 2°59.304 -999 1.974139 13.746547 -0.791624
2009-04-08 08:35:30 51°20.099 2°59.327 -999 1.974139 13.746283 -0.791624
2009-04-08 08:35:35 51°20.106 2°59.349 -999 1.974139 13.746283 -0.791624
2009-04-08 08:35:40 51°20.113 2°59.371 -999 1.973726 13.743148 -0.791624
2009-04-08 08:35:45 51°20.119 2°59.393 -999 1.986532 13.842512 -0.791624
2009-04-08 08:35:50 51°20.126 2°59.415 -999 1.974449 13.750486 -0.791624
2009-04-08 08:35:55 51°20.132 2°59.437 -999 1.974965 13.7552 -0.791624
2009-04-08 08:36:00 51°20.139 2°59.459 -999 1.974965 13.7552 -0.791624
2009-04-08 08:36:05 51°20.146 2°59.481 -999 1.999751 13.94512 -0.791624
2009-04-08 08:36:10 51°20.151 2°59.504 -999 1.97827 13.781619 -0.791624
2009-04-08 08:36:15 51°20.159 2°59.526 -999 1.983743 13.822394 -0.791624
2009-04-08 08:36:19 51°20.163 2°59.544 -999 1.976618 13.767746 -0.791624
2009-04-08 08:36:25 51°20.171 2°59.571 -999 2.004399 13.980462 -0.791624
2009-04-08 08:36:30 51°20.178 2°59.593 -999 2.006981 14.002796 -0.7568
2009-04-08 08:36:35 51°20.184 2°59.615 -999 2.006981 14.002796 -0.7568
2009-04-08 08:36:40 51°20.19 2°59.638 -999 1.962986 13.667438 -0.791624
2009-04-08 08:36:45 51°20.197 2°59.659 -999 2.009872 14.02264 -0.7568
2009-04-08 08:36:50 51°20.202 2°59.682 -999 1.956687 13.618331 -0.791624
2009-04-08 08:36:55 51°20.21 2°59.703 -999 2.00822 14.007102 -0.7568
2009-04-08 08:37:00 51°20.217 2°59.725 -999 1.994587 13.908271 -0.7568
2009-04-08 08:37:05 51°20.222 2°59.748 -999 1.994587 13.908271 -0.7568
2009-04-08 08:37:10 51°20.229 2°59.769 -999 1.969182 13.708135 -0.826448
2009-04-08 08:37:15 51°20.236 2°59.791 -999 1.994484 13.903471 -0.826448
2009-04-08 08:37:19 51°20.24 2°59.811 -999 1.95111 13.568727 -0.826448
2009-04-08 08:37:25 51°20.25 2°59.836 -999 1.991902 13.879309 -0.861272
2009-04-08 08:37:30 51°20.254 2°59.86 -999 1.991902 13.879309 -0.861272
2009-04-08 08:37:35 51°20.262 2°59.882 -999 1.963605 13.660834 -0.547855
2009-04-08 08:37:40 51°20.268 2°59.905 -999 1.973313 13.733671 -0.687152
2009-04-08 08:37:45 51°20.274 2°59.928 -999 1.961953 13.646731 -0.721976
2009-04-08 08:37:50 51°20.28 2°59.951 -999 1.957203 13.609153 -0.721976
2009-04-08 08:37:55 51°20.286 2°59.974 -999 1.971764 13.721392 -0.687152
2009-04-08 08:38:00 51°20.291 2°59.997 -999 1.971764 13.721392 -0.687152
2009-04-08 08:38:05 51°20.298 3°0.019 -999 1.974759 13.745962 -0.721976
2009-04-08 08:38:10 51°20.303 3°0.043 -999 1.964638 13.671557 -0.687152
2009-04-08 08:38:15 51°20.31 3°0.065 -999 1.977031 13.766114 -0.687152
2009-04-08 08:38:19 51°20.315 3°0.083 -999 1.969079 13.709725 -0.721976
2009-04-08 08:38:25 51°20.321 3°0.111 -999 1.96154 13.65305 -0.721976
2009-04-08 08:38:30 51°20.328 3°0.133 -999 1.961127 13.650442 -0.721976
2009-04-08 08:38:35 51°20.333 3°0.156 -999 1.961127 13.650442 -0.721976
2009-04-08 08:38:39 51°20.338 3°0.173 -999 1.966394 13.692775 -0.721976
2009-04-08 08:38:45 51°20.345 3°0.201 -999 1.9729 13.743487 -0.721976
2009-04-08 08:38:50 51°20.351 3°0.223 -999 1.968872 13.714492 -0.721976
2009-04-08 08:38:55 51°20.356 3°0.247 -999 1.96753 13.704299 -0.721976
2009-04-08 08:39:00 51°20.363 3°0.269 -999 1.966807 13.69802 -0.721976
2009-04-08 08:39:05 51°20.369 3°0.293 -999 1.966807 13.69802 -0.721976
2009-04-08 08:39:10 51°20.375 3°0.316 -999 1.980129 13.799455 -0.7568
2009-04-08 08:39:15 51°20.381 3°0.339 -999 1.983744 13.827983 -0.721976
2009-04-08 08:39:20 51°20.387 3°0.363 -999 1.982298 13.817528 -0.7568
2009-04-08 08:39:25 51°20.393 3°0.386 -999 1.990766 13.881895 -0.7568
2009-04-08 08:39:30 51°20.4 3°0.409 -999 1.990766 13.881895 -0.7568
2009-04-08 08:39:35 51°20.405 3°0.432 -999 1.965671 13.690714 -0.7568
2009-04-08 08:39:39 51°20.411 3°0.45 -999 1.984053 13.829805 -0.7568
2009-04-08 08:39:45 51°20.418 3°0.478 -999 1.971454 13.734889 -0.721976
2009-04-08 08:39:50 51°20.424 3°0.501 -999 1.975895 13.768086 -0.721976
2009-04-08 08:39:55 51°20.431 3°0.524 -999 1.97352 13.75031 -0.7568
2009-04-08 08:40:00 51°20.436 3°0.548 -999 1.967943 13.707435 -0.7568
2009-04-08 08:40:05 51°20.444 3°0.57 -999 1.967943 13.707435 -0.7568
2009-04-08 08:40:10 51°20.45 3°0.593 -999 1.962263 13.662478 -0.721976
2009-04-08 08:40:15 51°20.456 3°0.616 -999 1.954208 13.600056 -0.7568
2009-04-08 08:40:20 51°20.463 3°0.639 -999 1.984363 13.829497 -0.7568
2009-04-08 08:40:25 51°20.469 3°0.662 -999 1.968769 13.71318 -0.7568
2009-04-08 08:40:30 51°20.475 3°0.686 -999 1.978683 13.78794 -0.7568
2009-04-08 08:40:35 51°20.482 3°0.708 -999 1.978683 13.78794 -0.7568
2009-04-08 08:40:39 51°20.486 3°0.727 -999 1.966704 13.698554 -0.7568
2009-04-08 08:40:45 51°20.494 3°0.755 -999 1.967943 13.706643 -0.7568
2009-04-08 08:40:50 51°20.501 3°0.778 -999 1.974036 13.754232 -0.7568
2009-04-08 08:40:55 51°20.506 3°0.802 -999 1.970731 13.729928 -0.7568
2009-04-08 08:40:59 51°20.512 3°0.821 -999 1.970731 13.729928 -0.7568
2009-04-08 08:41:05 51°20.52 3°0.848 -999 1.978167 13.786407 -0.7568
2009-04-08 08:41:10 51°20.526 3°0.872 -999 1.974036 13.756351 -0.791624
2009-04-08 08:41:15 51°20.532 3°0.895 -999 1.982711 13.822797 -0.7568
2009-04-08 08:41:20 51°20.539 3°0.919 -999 1.962883 13.670864 -0.791624
2009-04-08 08:41:25 51°20.545 3°0.942 -999 1.980336 13.803682 -0.791624
2009-04-08 08:41:30 51°20.552 3°0.965 -999 1.986945 13.854715 -0.791624
2009-04-08 08:41:35 51°20.559 3°0.989 -999 1.986945 13.854715 -0.791624
2009-04-08 08:41:39 51°20.563 3°1.008 -999 1.987771 13.860996 -0.791624
2009-04-08 08:41:45 51°20.571 3°1.036 -999 1.970422 13.729426 -0.7568
2009-04-08 08:41:50 51°20.577 3°1.059 -999 1.964432 13.682624 -0.791624
2009-04-08 08:41:55 51°20.585 3°1.082 -999 1.976928 13.776992 -0.7568
2009-04-08 08:41:59 51°20.589 3°1.1 -999 1.978167 13.789062 -0.791624
2009-04-08 08:42:05 51°20.596 3°1.128 -999 1.978167 13.789062 -0.791624
2009-04-08 08:42:10 51°20.604 3°1.15 -999 1.991593 13.890584 -0.7568
2009-04-08 08:42:15 51°20.609 3°1.174 -999 1.975069 13.765787 -0.7568
2009-04-08 08:42:20 51°20.615 3°1.196 -999 1.97796 13.788555 -0.7568
2009-04-08 08:42:25 51°20.622 3°1.22 -999 1.982504 13.822558 -0.7568
2009-04-08 08:42:30 51°20.628 3°1.242 -999 1.971248 13.736759 -0.7568
2009-04-08 08:42:35 51°20.633 3°1.265 -999 1.971248 13.736759 -0.7568
2009-04-08 08:42:40 51°20.64 3°1.288 -999 1.954725 13.608949 -0.7568
2009-04-08 08:42:45 51°20.647 3°1.311 -999 1.982298 13.818593 -0.7568
2009-04-08 08:42:50 51°20.652 3°1.334 -999 1.960095 13.650226 -0.791624
2009-04-08 08:42:55 51°20.659 3°1.357 -999 1.981059 13.808377 -0.7568
2009-04-08 08:42:59 51°20.664 3°1.375 -999 1.981059 13.808377 -0.7568
2009-04-08 08:43:05 51°20.671 3°1.404 -999 1.970422 13.73207 -0.791624
2009-04-08 08:43:10 51°20.679 3°1.426 -999 1.966497 13.699096 -0.791624
2009-04-08 08:43:15 51°20.684 3°1.449 -999 1.980129 13.803973 -0.7568
2009-04-08 08:43:20 51°20.689 3°1.473 -999 1.953176 13.598505 -0.791624
2009-04-08 08:43:25 51°20.697 3°1.495 -999 1.974759 13.760518 -0.791624
2009-04-08 08:43:30 51°20.703 3°1.518 -999 1.95679 13.624358 -0.791624
2009-04-08 08:43:35 51°20.709 3°1.541 -999 1.95679 13.624358 -0.791624
2009-04-08 08:43:40 51°20.717 3°1.563 -999 1.96815 13.710851 -0.791624
2009-04-08 08:43:45 51°20.724 3°1.586 -999 1.96185 13.663552 -0.791624
2009-04-08 08:43:50 51°20.73 3°1.609 -999 1.975172 13.766041 -0.791624
2009-04-08 08:43:55 51°20.737 3°1.632 -999 1.968769 13.718462 -0.791624
2009-04-08 08:43:59 51°20.743 3°1.651 -999 1.969286 13.722912 -0.791624
2009-04-08 08:44:05 51°20.751 3°1.678 -999 1.969286 13.722912 -0.791624
2009-04-08 08:44:10 51°20.758 3°1.701 -999 1.960611 13.657038 -0.791624
2009-04-08 08:44:15 51°20.765 3°1.724 -999 1.964329 13.685266 -0.7568
2009-04-08 08:44:19 51°20.771 3°1.742 -999 1.950801 13.582316 -0.791624
2009-04-08 08:44:25 51°20.779 3°1.77 -999 1.968976 13.721352 -0.7568
2009-04-08 08:44:30 51°20.785 3°1.793 -999 1.958029 13.639803 -0.791624
2009-04-08 08:44:35 51°20.792 3°1.817 -999 1.958029 13.639803 -0.791624
2009-04-08 08:44:40 51°20.8 3°1.839 -999 1.968769 13.72084 -0.7568
2009-04-08 08:44:45 51°20.805 3°1.863 -999 1.954725 13.61393 -0.791624
2009-04-08 08:44:50 51°20.813 3°1.886 -999 1.961644 13.665668 -0.7568
2009-04-08 08:44:55 51°20.819 3°1.91 -999 1.975482 13.771047 -0.791624
2009-04-08 08:44:59 51°20.824 3°1.928 -999 1.975482 13.771047 -0.791624
2009-04-08 08:45:05 51°20.831 3°1.957 -999 1.96154 13.665674 -0.791624
2009-04-08 08:45:10 51°20.838 3°1.98 -999 1.962263 13.669846 -0.791624
2009-04-08 08:45:15 51°20.844 3°2.003 -999 1.967427 13.70985 -0.791624
2009-04-08 08:45:19 51°20.849 3°2.022 -999 1.969802 13.728421 -0.791624
2009-04-08 08:45:25 51°20.857 3°2.05 -999 1.956377 13.624897 -0.791624
2009-04-08 08:45:30 51°20.863 3°2.073 -999 1.954105 13.607654 -0.791624
2009-04-08 08:45:35 51°20.869 3°2.096 -999 1.954105 13.607654 -0.791624
2009-04-08 08:45:40 51°20.876 3°2.118 -999 1.954621 13.61131 -0.791624
2009-04-08 08:45:45 51°20.883 3°2.142 -999 1.958546 13.641096 -0.791624
2009-04-08 08:45:50 51°20.889 3°2.165 -999 1.964948 13.691817 -0.791624
2009-04-08 08:45:55 51°20.896 3°2.188 -999 1.958959 13.646334 -0.791624
2009-04-08 08:46:00 51°20.903 3°2.211 -999 1.969595 13.728968 -0.791624
2009-04-08 08:46:05 51°20.91 3°2.234 -999 1.969595 13.728968 -0.791624
2009-04-08 08:46:10 51°20.916 3°2.258 -999 1.960818 13.66229 -0.791624
2009-04-08 08:46:15 51°20.923 3°2.28 -999 1.975998 13.777891 -0.791624
2009-04-08 08:46:19 51°20.928 3°2.299 -999 1.955138 13.620476 -0.791624
2009-04-08 08:46:25 51°20.937 3°2.326 -999 1.980749 13.81427 -0.7568
2009-04-08 08:46:30 51°20.944 3°2.349 -999 1.980749 13.81427 -0.7568
2009-04-08 08:46:35 51°20.949 3°2.373 -999 1.957203 13.636684 -0.791624
2009-04-08 08:46:40 51°20.957 3°2.395 -999 1.958855 13.64739 -0.791624
2009-04-08 08:46:45 51°20.963 3°2.418 -999 1.969595 13.729762 -0.791624
2009-04-08 08:46:50 51°20.97 3°2.44 -999 1.951833 13.594603 -0.826448
2009-04-08 08:46:55 51°20.978 3°2.463 -999 1.975585 13.774485 -0.7568
2009-04-08 08:47:00 51°20.984 3°2.486 -999 1.955241 13.620735 -0.791624
2009-04-08 08:47:05 51°20.99 3°2.509 -999 1.955241 13.620735 -0.791624
2009-04-08 08:47:10 51°20.998 3°2.531 -999 1.954621 13.614457 -0.791624
2009-04-08 08:47:15 51°21.005 3°2.554 -999 1.958133 13.641376 -0.7568
2009-04-08 08:47:19 51°21.01 3°2.573 -999 1.959785 13.653922 -0.791624
2009-04-08 08:47:25 51°21.018 3°2.601 -999 1.9571 13.63406 -0.791624
2009-04-08 08:47:30 51°21.024 3°2.625 -999 1.958133 13.641901 -0.791624
2009-04-08 08:47:35 51°21.031 3°2.648 -999 1.958133 13.641901 -0.791624
2009-04-08 08:47:39 51°21.036 3°2.667 -999 1.950697 13.585195 -0.791624
2009-04-08 08:47:45 51°21.044 3°2.695 -999 1.974139 13.765619 -0.791624
2009-04-08 08:47:50 51°21.05 3°2.718 -999 1.971351 13.747076 -0.791624
2009-04-08 08:47:55 51°21.057 3°2.742 -999 1.955654 13.626235 -0.791624
2009-04-08 08:48:00 51°21.065 3°2.765 -999 1.956893 13.634857 -0.791624
2009-04-08 08:48:05 51°21.071 3°2.788 -999 1.956893 13.634857 -0.791624
2009-04-08 08:48:10 51°21.077 3°2.812 -999 1.958029 13.644272 -0.791624
2009-04-08 08:48:15 51°21.083 3°2.836 -999 1.960508 13.662833 -0.791624
2009-04-08 08:48:20 51°21.09 3°2.859 -999 1.948632 13.572659 -0.791624
2009-04-08 08:48:25 51°21.096 3°2.883 -999 1.977341 13.791816 -0.7568
2009-04-08 08:48:30 51°21.104 3°2.905 -999 1.977341 13.791816 -0.7568
2009-04-08 08:48:35 51°21.109 3°2.93 -999 1.955035 13.624155 -0.791624
2009-04-08 08:48:39 51°21.116 3°2.948 -999 1.976102 13.783722 -0.791624
2009-04-08 08:48:45 51°21.123 3°2.977 -999 1.950594 13.588863 -0.791624
2009-04-08 08:48:50 51°21.13 3°2.999 -999 1.98426 13.845238 -0.791624
2009-04-08 08:48:55 51°21.136 3°3.023 -999 1.950078 13.584419 -0.791624
2009-04-08 08:49:00 51°21.143 3°3.047 -999 1.980852 13.81825 -0.791624
2009-04-08 08:49:05 51°21.15 3°3.07 -999 1.980852 13.81825 -0.791624
2009-04-08 08:49:10 51°21.155 3°3.095 -999 1.953795 13.612907 -0.826448
2009-04-08 08:49:15 51°21.162 3°3.117 -999 1.971971 13.751521 -0.791624
2009-04-08 08:49:20 51°21.167 3°3.141 -999 1.955861 13.63043 -0.791624
2009-04-08 08:49:25 51°21.174 3°3.165 -999 1.950594 13.588863 -0.791624
2009-04-08 08:49:30 51°21.18 3°3.188 -999 1.967014 13.715167 -0.791624
2009-04-08 08:49:35 51°21.186 3°3.211 -999 1.967014 13.715167 -0.791624
2009-04-08 08:49:39 51°21.191 3°3.229 -999 1.960198 13.664957 -0.791624
2009-04-08 08:49:45 51°21.199 3°3.257 -999 1.962883 13.68536 -0.791624
2009-04-08 08:49:50 51°21.206 3°3.28 -999 1.959269 13.657896 -0.791624
2009-04-08 08:49:55 51°21.212 3°3.303 -999 1.961954 13.679088 -0.791624
2009-04-08 08:50:00 51°21.218 3°3.327 -999 1.961954 13.679088 -0.791624
2009-04-08 08:50:05 51°21.224 3°3.351 -999 1.949665 13.584163 -0.791624
2009-04-08 08:50:10 51°21.23 3°3.374 -999 1.961024 13.669917 -0.791624
2009-04-08 08:50:15 51°21.234 3°3.399 -999 1.961334 13.673589 -0.791624
2009-04-08 08:50:20 51°21.24 3°3.423 -999 1.957926 13.64796 -0.791624
2009-04-08 08:50:25 51°21.246 3°3.447 -999 1.959578 13.66025 -0.791624
2009-04-08 08:50:30 51°21.253 3°3.47 -999 1.958752 13.654763 -0.826448
2009-04-08 08:50:35 51°21.259 3°3.494 -999 1.958752 13.654763 -0.826448
2009-04-08 08:50:39 51°21.264 3°3.512 -999 1.954931 13.625735 -0.791624
2009-04-08 08:50:45 51°21.271 3°3.54 -999 1.952453 13.605336 -0.791624
2009-04-08 08:50:51 51°21.279 3°3.569 -999 1.963503 13.690596 -0.791624
2009-04-08 08:50:55 51°21.283 3°3.588 -999 1.961541 13.67674 -0.791624
2009-04-08 08:50:59 51°21.288 3°3.608 -999 1.958339 13.652414 -0.791624
2009-04-08 08:51:05 51°21.295 3°3.636 -999 1.958339 13.652414 -0.791624
2009-04-08 08:51:10 51°21.301 3°3.66 -999 1.96815 13.728036 -0.791624
2009-04-08 08:51:15 51°21.308 3°3.684 -999 1.962367 13.684338 -0.791624
2009-04-08 08:51:20 51°21.314 3°3.707 -999 1.962677 13.687221 -0.791624
2009-04-08 08:51:25 51°21.321 3°3.73 -999 1.951317 13.599856 -0.791624
2009-04-08 08:51:30 51°21.327 3°3.753 -999 1.956274 13.637774 -0.791624
2009-04-08 08:51:35 51°21.334 3°3.777 -999 1.956274 13.637774 -0.791624
2009-04-08 08:51:40 51°21.34 3°3.801 -999 1.95235 13.608487 -0.791624
2009-04-08 08:51:45 51°21.346 3°3.824 -999 1.959372 13.662105 -0.791624
2009-04-08 08:51:50 51°21.352 3°3.848 -999 1.962367 13.685922 -0.791624
2009-04-08 08:51:55 51°21.357 3°3.871 -999 1.94698 13.568748 -0.826448
2009-04-08 08:51:59 51°21.361 3°3.891 -999 1.94698 13.568748 -0.826448
2009-04-08 08:52:05 51°21.369 3°3.919 -999 1.964949 13.704755 -0.791624
2009-04-08 08:52:10 51°21.373 3°3.944 -999 1.953899 13.622619 -0.687152
2009-04-08 08:52:15 51°21.381 3°3.967 -999 1.953589 13.61974 -0.58268
2009-04-08 08:52:20 51°21.386 3°3.992 -999 1.954415 13.62444 -0.58268
2009-04-08 08:52:25 51°21.392 3°4.015 -999 1.957616 13.649817 -0.58268
2009-04-08 08:52:30 51°21.397 3°4.04 -999 1.95679 13.643013 -0.58268
2009-04-08 08:52:35 51°21.403 3°4.064 -999 1.95679 13.643013 -0.58268
2009-04-08 08:52:40 51°21.407 3°4.089 -999 1.95142 13.602739 -0.617504
2009-04-08 08:52:45 51°21.413 3°4.113 -999 1.960508 13.672056 -0.617504
2009-04-08 08:52:50 51°21.417 3°4.138 -999 1.949458 13.587834 -0.652328
2009-04-08 08:52:55 51°21.423 3°4.162 -999 1.962883 13.690639 -0.617504
2009-04-08 08:53:00 51°21.428 3°4.186 -999 1.964122 13.702439 -0.617504
2009-04-08 08:53:05 51°21.434 3°4.21 -999 1.964122 13.702439 -0.617504
2009-04-08 08:53:10 51°21.44 3°4.234 -999 1.949045 13.586531 -0.617504
2009-04-08 08:53:15 51°21.445 3°4.259 -999 1.955654 13.636485 -0.617504
2009-04-08 08:53:20 51°21.451 3°4.283 -999 1.952556 13.613206 -0.652328
2009-04-08 08:53:25 51°21.456 3°4.308 -999 1.958339 13.657418 -0.652328
2009-04-08 08:53:30 51°21.461 3°4.332 -999 1.954828 13.632048 -0.652328
2009-04-08 08:53:35 51°21.466 3°4.357 -999 1.954828 13.632048 -0.652328
2009-04-08 08:53:40 51°21.472 3°4.382 -999 1.959475 13.667371 -0.617504
2009-04-08 08:53:45 51°21.477 3°4.406 -999 1.955241 13.634924 -0.652328
2009-04-08 08:53:50 51°21.482 3°4.43 -999 1.948839 13.587583 -0.687152
2009-04-08 08:53:55 51°21.488 3°4.455 -999 1.958236 13.658741 -0.652328
2009-04-08 08:54:00 51°21.494 3°4.479 -999 1.960921 13.68153 -0.687152
2009-04-08 08:54:05 51°21.499 3°4.503 -999 1.960921 13.68153 -0.687152
2009-04-08 08:54:10 51°21.505 3°4.527 -999 1.959166 13.667917 -0.652328
2009-04-08 08:54:15 51°21.511 3°4.552 -999 1.959475 13.670272 -0.617504
2009-04-08 08:54:20 51°21.516 3°4.576 -999 1.959062 13.666604 -0.652328
2009-04-08 08:54:25 51°21.522 3°4.601 -999 1.955035 13.635985 -0.652328
2009-04-08 08:54:30 51°21.528 3°4.626 -999 1.958339 13.660844 -0.652328
2009-04-08 08:54:35 51°21.534 3°4.651 -999 1.958339 13.660844 -0.652328
2009-04-08 08:54:39 51°21.539 3°4.671 -999 1.959682 13.671051 -0.652328
2009-04-08 08:54:45 51°21.545 3°4.7 -999 1.954622 13.633109 -0.687152
2009-04-08 08:54:50 51°21.55 3°4.725 -999 1.958546 13.663469 -0.687152
2009-04-08 08:54:55 51°21.556 3°4.75 -999 1.953692 13.626044 -0.687152
2009-04-08 08:55:00 51°21.561 3°4.774 -999 1.966188 13.722117 -0.687152
2009-04-08 08:55:05 51°21.567 3°4.799 -999 1.966188 13.722117 -0.687152
2009-04-08 08:55:10 51°21.572 3°4.823 -999 1.956377 13.648298 -0.687152
2009-04-08 08:55:15 51°21.579 3°4.847 -999 1.954725 13.634946 -0.652328
2009-04-08 08:55:20 51°21.583 3°4.872 -999 1.944192 13.553849 -0.687152
2009-04-08 08:55:25 51°21.59 3°4.896 -999 1.958546 13.663469 -0.687152
2009-04-08 08:55:30 51°21.594 3°4.92 -999 1.958546 13.663469 -0.687152
2009-04-08 08:55:35 51°21.6 3°4.945 -999 1.956377 13.648561 -0.687152
2009-04-08 08:55:40 51°21.606 3°4.969 -999 1.960095 13.677095 -0.652328
2009-04-08 08:55:45 51°21.611 3°4.994 -999 1.954622 13.635214 -0.687152
2009-04-08 08:55:50 51°21.617 3°5.018 -999 1.951524 13.611662 -0.687152
2009-04-08 08:55:55 51°21.622 3°5.043 -999 1.952453 13.617939 -0.687152
2009-04-08 08:56:00 51°21.629 3°5.067 -999 1.950594 13.604335 -0.687152
2009-04-08 08:56:05 51°21.633 3°5.092 -999 1.950594 13.604335 -0.687152
2009-04-08 08:56:10 51°21.639 3°5.116 -999 1.958959 13.669248 -0.687152
2009-04-08 08:56:15 51°21.644 3°5.141 -999 1.95772 13.660351 -0.687152
2009-04-08 08:56:20 51°21.649 3°5.166 -999 1.951937 13.616642 -0.687152
2009-04-08 08:56:25 51°21.655 3°5.19 -999 1.958856 13.669782 -0.687152
2009-04-08 08:56:30 51°21.661 3°5.215 -999 1.969699 13.753077 -0.687152
2009-04-08 08:56:35 51°21.666 3°5.24 -999 1.969699 13.753077 -0.687152
2009-04-08 08:56:40 51°21.672 3°5.264 -999 1.959372 13.676086 -0.687152
2009-04-08 08:56:45 51°21.677 3°5.289 -999 1.958133 13.665076 -0.687152
2009-04-08 08:56:50 51°21.684 3°5.313 -999 1.954932 13.640465 -0.687152
2009-04-08 08:56:55 51°21.689 3°5.338 -999 1.962883 13.702005 -0.687152
2009-04-08 08:57:00 51°21.695 3°5.363 -999 1.959476 13.676079 -0.687152
2009-04-08 08:57:05 51°21.701 3°5.388 -999 1.959476 13.676079 -0.687152
2009-04-08 08:57:10 51°21.707 3°5.412 -999 1.96784 13.740787 -0.652328
2009-04-08 08:57:15 51°21.712 3°5.437 -999 1.947703 13.58708 -0.687152
2009-04-08 08:57:20 51°21.719 3°5.46 -999 1.965981 13.726109 -0.652328
2009-04-08 08:57:25 51°21.724 3°5.484 -999 1.950388 13.606968 -0.687152
2009-04-08 08:57:30 51°21.73 3°5.508 -999 1.950388 13.606968 -0.687152
2009-04-08 08:57:35 51°21.736 3°5.533 -999 1.958133 13.665076 -0.687152
2009-04-08 08:57:40 51°21.741 3°5.556 -999 1.96309 13.703312 -0.687152
2009-04-08 08:57:45 51°21.747 3°5.581 -999 1.959579 13.678185 -0.687152
2009-04-08 08:57:50 51°21.753 3°5.606 -999 1.96371 13.708821 -0.687152
2009-04-08 08:57:55 51°21.758 3°5.63 -999 1.954415 13.638119 -0.687152
2009-04-08 08:57:59 51°21.761 3°5.65 -999 1.964742 13.717738 -0.687152
2009-04-08 08:58:05 51°21.769 3°5.679 -999 1.964742 13.717738 -0.687152
2009-04-08 08:58:10 51°21.774 3°5.704 -999 1.968873 13.7521 -0.687152
2009-04-08 08:58:15 51°21.78 3°5.728 -999 1.962264 13.70126 -0.687152
2009-04-08 08:58:20 51°21.785 3°5.752 -999 1.955138 13.645461 -0.687152
2009-04-08 08:58:25 51°21.791 3°5.777 -999 1.966395 13.731374 -0.687152
2009-04-08 08:58:30 51°21.797 3°5.801 -999 1.960715 13.688678 -0.721976
2009-04-08 08:58:35 51°21.803 3°5.825 -999 1.960715 13.688678 -0.721976
2009-04-08 08:58:40 51°21.809 3°5.85 -999 1.959372 13.678199 -0.687152
2009-04-08 08:58:45 51°21.814 3°5.875 -999 1.959269 13.677413 -0.721976
2009-04-08 08:58:50 51°21.821 3°5.898 -999 1.970216 13.762587 -0.721976
2009-04-08 08:58:55 51°21.826 3°5.923 -999 1.956791 13.659876 -0.721976
2009-04-08 08:59:00 51°21.833 3°5.946 -999 1.949046 13.600438 -0.721976
2009-04-08 08:59:05 51°21.838 3°5.971 -999 1.949046 13.600438 -0.721976
2009-04-08 08:59:10 51°21.845 3°5.995 -999 1.965775 13.728779 -0.721976
2009-04-08 08:59:15 51°21.85 3°6.02 -999 1.96278 13.707043 -0.721976
2009-04-08 08:59:20 51°21.856 3°6.045 -999 1.944708 13.56877 -0.721976
2009-04-08 08:59:25 51°21.863 3°6.07 -999 1.98013 13.839167 -0.721976
2009-04-08 08:59:30 51°21.868 3°6.094 -999 1.943469 13.559348 -0.721976
2009-04-08 08:59:35 51°21.873 3°6.119 -999 1.943469 13.559348 -0.721976
2009-04-08 08:59:40 51°21.88 3°6.143 -999 1.959889 13.683713 -0.721976
2009-04-08 08:59:45 51°21.885 3°6.168 -999 1.947084 13.584993 -0.721976
2009-04-08 08:59:50 51°21.892 3°6.191 -999 1.953899 13.637879 -0.721976
2009-04-08 08:59:55 51°21.896 3°6.217 -999 1.952453 13.627145 -0.721976
2009-04-08 09:00:00 51°21.903 3°6.241 -999 1.954209 13.64129 -0.721976
2009-04-08 09:00:05 51°21.908 3°6.266 -999 1.954209 13.64129 -0.721976
2009-04-08 09:00:10 51°21.914 3°6.291 -999 1.972488 13.782817 -0.721976
2009-04-08 09:00:15 51°21.919 3°6.317 -999 1.950388 13.614329 -0.721976
2009-04-08 09:00:20 51°21.925 3°6.341 -999 1.956171 13.658592 -0.721976
2009-04-08 09:00:25 51°21.931 3°6.366 -999 1.943159 13.558826 -0.721976
2009-04-08 09:00:30 51°21.937 3°6.39 -999 1.958753 13.67824 -0.721976
2009-04-08 09:00:35 51°21.943 3°6.415 -999 1.958753 13.67824 -0.721976
2009-04-08 09:00:40 51°21.948 3°6.439 -999 1.956584 13.662263 -0.721976
2009-04-08 09:00:45 51°21.955 3°6.464 -999 1.956481 13.66227 -0.721976
2009-04-08 09:00:50 51°21.96 3°6.489 -999 1.953073 13.636072 -0.721976
2009-04-08 09:00:55 51°21.966 3°6.513 -999 1.957823 13.67328 -0.721976
2009-04-08 09:01:00 51°21.971 3°6.539 -999 1.945844 13.582655 -0.721976
2009-04-08 09:01:05 51°21.977 3°6.563 -999 1.945844 13.582655 -0.721976
2009-04-08 09:01:10 51°21.984 3°6.588 -999 1.954416 13.64787 -0.721976
2009-04-08 09:01:15 51°21.988 3°6.614 -999 1.949665 13.61146 -0.721976
2009-04-08 09:01:20 51°21.994 3°6.638 -999 1.947187 13.592604 -0.721976
2009-04-08 09:01:25 51°22 3°6.663 -999 1.952867 13.636609 -0.721976
2009-04-08 09:01:30 51°22.005 3°6.688 -999 1.952144 13.630844 -0.721976
2009-04-08 09:01:35 51°22.011 3°6.713 -999 1.952144 13.630844 -0.721976
2009-04-08 09:01:40 51°22.017 3°6.738 -999 1.955035 13.652586 -0.721976
2009-04-08 09:01:45 51°22.022 3°6.763 -999 1.942643 13.557519 -0.721976
2009-04-08 09:01:50 51°22.029 3°6.786 -999 1.965982 13.734862 -0.721976
2009-04-08 09:01:55 51°22.033 3°6.812 -999 1.939752 13.535532 -0.721976
2009-04-08 09:01:59 51°22.038 3°6.832 -999 1.978891 13.834269 -0.721976
2009-04-08 09:02:05 51°22.045 3°6.861 -999 1.978891 13.834269 -0.721976
2009-04-08 09:02:10 51°22.049 3°6.886 -999 1.948116 13.600463 -0.7568
2009-04-08 09:02:15 51°22.056 3°6.911 -999 1.950801 13.61905 -0.721976
2009-04-08 09:02:20 51°22.061 3°6.936 -999 1.951627 13.623756 -0.7568
2009-04-08 09:02:25 51°22.067 3°6.96 -999 1.951421 13.622974 -0.721976
2009-04-08 09:02:30 51°22.072 3°6.986 -999 1.954312 13.645766 -0.721976
2009-04-08 09:02:35 51°22.079 3°7.011 -999 1.954312 13.645766 -0.721976
2009-04-08 09:02:40 51°22.084 3°7.036 -999 1.954106 13.645513 -0.721976
2009-04-08 09:02:45 51°22.089 3°7.061 -999 1.955035 13.655489 -0.7568
2009-04-08 09:02:50 51°22.095 3°7.086 -999 1.955139 13.657859 -0.721976